| Place | Name | Time | Raw score | Score |
|---|---|---|---|---|
| 1 | -DarkLlama- | 1:12.90 | 1,000 | 537 |
| 2 | Puma D. Ace | 1:13.40 | 900 | 483 |
| 3 | slug ʕ●.●ʔ | 1:13.68 | 859 | 461 |
| 4 | Bile | 1:14.57 | 827 | 444 |
| 5 | Terrapin | 1:14.63 | 800 | 429 |
| 6 | Ferreus | 1:14.73 | 777 | 417 |
| 7 | DasGerippe | 1:15.27 | 756 | 406 |
| 8 | Brionac | 1:15.51 | 736 | 395 |
| 9 | cerberus❤ | 1:15.96 | 718 | 385 |
| 10 | JnvSor | 1:16.12 | 700 | 376 |
| 11 | Waonder | 1:16.47 | 684 | 367 |
| 12 | fentanyl lover <3 | 1:16.95 | 669 | 359 |
| 13 | Zany | 1:18.63 | 654 | 351 |
| 14 | KnightBane | 1:18.99 | 640 | 344 |
| 15 | Freud | 1:19.33 | 626 | 336 |
| 16 | Tiedye | 1:20.05 | 613 | 329 |
| 17 | Kinix | 1:21.12 | 600 | 322 |
| 18 | Formidable | 1:21.59 | 588 | 316 |
| 19 | XiQu3sT | 1:21.85 | 576 | 309 |
| 20 | Predatory_Balloon | 1:22.02 | 565 | 303 |
| 21 | Mei Rummy-chan | 1:23.06 | 553 | 297 |
| 22 | Bridge | 1:23.07 | 542 | 291 |
| 23 | Backgrounds' | 1:23.35 | 531 | 285 |
| 24 | OMANEYE | 1:24.14 | 521 | 280 |
| 24 | Jay2a | 1:24.14 | 521 | 280 |
| 26 | Thermos | 1:24.15 | 500 | 268 |
| 27 | Blu3 | 1:24.32 | 491 | 264 |
| 28 | Tribow | 1:24.33 | 481 | 258 |
| 29 | pigpenguin | 1:24.34 | 471 | 253 |
| 30 | Seinah | 1:24.36 | 462 | 248 |
| 30 | Shikhuh | 1:24.36 | 462 | 248 |
| 32 | Nerf | 1:24.41 | 444 | 238 |
| 33 | Haunted Pleb | 1:24.42 | 435 | 234 |
| 34 | Californ1a | 1:24.47 | 426 | 229 |
| 35 | Camel | 1:24.50 | 417 | 224 |
| 36 | ChernobilChuck :D | 1:24.59 | 409 | 220 |
| 37 | Draygone | 1:24.64 | 400 | 215 |
| 38 | badbfg | 1:24.72 | 392 | 210 |
| 39 | fats and poors disrespecter | 1:24.73 | 384 | 206 |
| 40 | burger | 1:24.80 | 376 | 202 |
| 41 | futpib | 1:24.83 | 368 | 198 |
| 42 | Sidewinder Fang | 1:24.84 | 360 | 193 |
| 43 | [deleted] | 1:24.85 | 352 | 189 |
| 44 | notguts | 1:24.86 | 345 | 185 |
| 45 | Other XIX | 1:24.87 | 337 | 181 |
| 46 | codythecoder | 1:24.90 | 330 | 177 |
| 47 | Paparazzi | 1:24.91 | 322 | 173 |
| 48 | Kotz | 1:24.92 | 315 | 169 |
| 48 | IllKIllU | 1:24.92 | 315 | 169 |
| 50 | Dimitri | 1:24.99 | 300 | 161 |
| 50 | levinv270 | 1:24.99 | 300 | 161 |
| 52 | Nico | 1:25.00 | 286 | 154 |
| 52 | Maxter Max | 1:25.00 | 286 | 154 |
| 52 | i0nTempest | 1:25.00 | 286 | 154 |
| 55 | Azure | 1:25.02 | 266 | 143 |
| 56 | DefenderOfHyrule | 1:25.05 | 259 | 139 |
| 56 | Domino | 1:25.05 | 259 | 139 |
| 58 | DownloadFLD | 1:25.06 | 246 | 132 |
| 59 | Void Concept | 1:25.08 | 239 | 128 |
| 59 | FluffyTheZombii | 1:25.08 | 239 | 128 |
| 61 | Wolf Black | 1:25.12 | 226 | 121 |
| 62 | Overlord | 1:25.13 | 219 | 118 |
| 63 | Gale | 1:25.14 | 213 | 114 |
| 63 | Siyzerix | 1:25.14 | 213 | 114 |
| 65 | The Blue Fox | 1:25.16 | 200 | 107 |
| 65 | jason | 1:25.16 | 200 | 107 |
| 67 | Rayne Hellfire | 1:25.18 | 188 | 101 |
| 68 | Mossy Shush | 1:25.19 | 182 | 98 |
| 69 | Azure Zakura | 1:25.22 | 176 | 94 |
| 70 | Andrew :D | 1:25.23 | 170 | 91 |
| 71 | Sunrider Lightbringer | 1:25.24 | 164 | 88 |
| 72 | Chipboard | 1:25.25 | 158 | 85 |
| 72 | Dreigo | 1:25.25 | 158 | 85 |
| 74 | Jacsn | 1:25.26 | 146 | 78 |
| 74 | dog | 1:25.26 | 146 | 78 |
| 76 | HyperNova | 1:25.28 | 134 | 72 |
| 77 | e⁻ | 1:25.29 | 129 | 69 |
| 77 | Latapi | 1:25.29 | 129 | 69 |
| 77 | MasterJedi2014 | 1:25.29 | 129 | 69 |
| 80 | concil | 1:25.30 | 112 | 60 |
| 80 | DecentM | 1:25.30 | 112 | 60 |
| 80 | BigThiccYeet | 1:25.30 | 112 | 60 |
| 80 | youtube vembress | 1:25.30 | 112 | 60 |
| 84 | Alopex | 1:25.31 | 89 | 48 |
| 84 | PineFreshGuy | 1:25.31 | 89 | 48 |
| 86 | SlowScan | 1:25.32 | 79 | 42 |
| 87 | Riskey | 1:25.34 | 73 | 39 |
| 87 | DPftw | 1:25.34 | 73 | 39 |
| 89 | Ruslan145 | 1:25.35 | 62 | 33 |
| 90 | Phimeek | 1:25.40 | 57 | 31 |
| 91 | Plasmawario | 1:25.41 | 52 | 28 |
| 91 | emirhansaral118 | 1:25.41 | 52 | 28 |
| 93 | McFolt | 1:25.42 | 41 | 22 |
| 94 | cuba | 1:25.43 | 36 | 19 |
| 94 | ExtraRaven | 1:25.43 | 36 | 19 |
| 96 | RaiderZulu | 1:25.44 | 26 | 14 |
| 96 | 3D | 1:25.44 | 26 | 14 |
| 98 | lefor0416 | 1:25.45 | 16 | 9 |
| 99 | kashyyyke | 1:25.46 | 11 | 6 |
| 99 | rocketdriverexp | 1:25.46 | 11 | 6 |
| 99 | Jarminx | 1:25.46 | 11 | 6 |
| 99 | Brother Buckshot | 1:25.46 | 11 | 6 |
| 103 | menkaru | 1:25.47 | 0 | 0 |
| 104 | Big Bootiecoot | 1:25.48 | 0 | 0 |
| 104 | Langola | 1:25.48 | 0 | 0 |
| 104 | Nainji | 1:25.48 | 0 | 0 |
| 107 | FOG BLAST THE VENT CORE | 1:25.49 | 0 | 0 |
| 107 | Sensokaku | 1:25.49 | 0 | 0 |
| 109 | Cptnbean | 1:25.50 | 0 | 0 |
| 110 | L4v4 | 1:25.51 | 0 | 0 |
| 111 | supersmily5 | 1:25.52 | 0 | 0 |
| 111 | lift your tail for me | 1:25.52 | 0 | 0 |
| 111 | milli | 1:25.52 | 0 | 0 |
| 111 | Joakim230199 | 1:25.52 | 0 | 0 |
| 115 | PuppySky | 1:25.56 | 0 | 0 |
| 115 | GabrielLivesHere | 1:25.56 | 0 | 0 |
| 117 | ash | 1:25.57 | 0 | 0 |
| 117 | Nick | 1:25.57 | 0 | 0 |
| 119 | Fwiffo | 1:25.58 | 0 | 0 |
| 119 | OnyonSwomp | 1:25.58 | 0 | 0 |
| 121 | Red Hood | 1:25.60 | 0 | 0 |
| 121 | ViryGo19 | 1:25.60 | 0 | 0 |
| 123 | Jak | 1:25.62 | 0 | 0 |
| 123 | Chronochax | 1:25.62 | 0 | 0 |
| 125 | $neaky | 1:25.63 | 0 | 0 |
| 126 | Spotfire | 1:25.64 | 0 | 0 |
| 126 | slimcake07 | 1:25.64 | 0 | 0 |
| 128 | CeruleanAzura | 1:25.65 | 0 | 0 |
| 129 | Keint | 1:25.66 | 0 | 0 |
| 129 | PinesOfChaos | 1:25.66 | 0 | 0 |
| 131 | Rhetorical Question | 1:25.67 | 0 | 0 |
| 132 | kriz_chan | 1:25.68 | 0 | 0 |
| 132 | MioTokiya | 1:25.68 | 0 | 0 |
| 132 | Pixel_ | 1:25.68 | 0 | 0 |
| 135 | CodedCrow | 1:25.69 | 0 | 0 |
| 135 | Aiko | 1:25.69 | 0 | 0 |
| 135 | Jeżyk | 1:25.69 | 0 | 0 |
| 135 | That One Panda | 1:25.69 | 0 | 0 |
| 139 | Ironside451 | 1:25.70 | 0 | 0 |
| 140 | Yingor | 1:25.71 | 0 | 0 |
| 141 | Kursura | 1:25.72 | 0 | 0 |
| 142 | lungfish | 1:25.73 | 0 | 0 |
| 142 | JDthe3rd | 1:25.73 | 0 | 0 |
| 142 | Lord Adorable | 1:25.73 | 0 | 0 |
| 145 | Hotride | 1:25.74 | 0 | 0 |
| 146 | Jacket | 1:25.75 | 0 | 0 |
| 146 | tylercreamer | 1:25.75 | 0 | 0 |
| 148 | um.roge | 1:25.76 | 0 | 0 |
| 148 | nobfaic | 1:25.76 | 0 | 0 |
| 148 | GR0V | 1:25.76 | 0 | 0 |
| 148 | A.K.S. | 1:25.76 | 0 | 0 |
| 152 | Winter's Crescendo | 1:25.77 | 0 | 0 |
| 152 | Asinay | 1:25.77 | 0 | 0 |
| 152 | Pelerin | 1:25.77 | 0 | 0 |
| 155 | Disatroja | 1:25.78 | 0 | 0 |
| 155 | ranger481 | 1:25.78 | 0 | 0 |
| 157 | JayBoneJay | 1:25.79 | 0 | 0 |
| 158 | codename_rb | 1:25.80 | 0 | 0 |
| 159 | Spaceburger | 1:25.81 | 0 | 0 |
| 160 | Corecii | 1:25.82 | 0 | 0 |
| 160 | Sun | 1:25.82 | 0 | 0 |
| 162 | Starlord | 1:25.83 | 0 | 0 |
| 163 | Woren | 1:25.84 | 0 | 0 |
| 163 | Coconut Pilk | 1:25.84 | 0 | 0 |
| 165 | Curious Fish | 1:25.85 | 0 | 0 |
| 166 | Ktee | 1:25.86 | 0 | 0 |
| 166 | Woody | 1:25.86 | 0 | 0 |
| 168 | Zeo | 1:25.87 | 0 | 0 |
| 168 | grafica | 1:25.87 | 0 | 0 |
| 168 | Kenaz | 1:25.87 | 0 | 0 |
| 171 | Daedalus99 | 1:25.88 | 0 | 0 |
| 171 | XLgeneral | 1:25.88 | 0 | 0 |
| 171 | Toby | 1:25.88 | 0 | 0 |
| 174 | CuddleStrike | 1:25.89 | 0 | 0 |
| 175 | Battle Banana Chris Handsom | 1:25.91 | 0 | 0 |
| 175 | TheEvilMidnightBomber | 1:25.91 | 0 | 0 |
| 177 | The Unusual Suspect | 1:25.92 | 0 | 0 |
| 177 | Hekko | 1:25.92 | 0 | 0 |
| 179 | Almbrothers | 1:25.93 | 0 | 0 |
| 179 | Gab | 1:25.93 | 0 | 0 |
| 181 | Mîlchschnîtte | 1:25.94 | 0 | 0 |
| 182 | Samoyed | 1:25.95 | 0 | 0 |
| 182 | GTNeon | 1:25.95 | 0 | 0 |
| 184 | Sunnydan | 1:25.96 | 0 | 0 |
| 185 | ATOM | 1:25.97 | 0 | 0 |
| 186 | Dracheron | 1:25.98 | 0 | 0 |
| 187 | Keiyo | 1:25.99 | 0 | 0 |
| 187 | fippo | 1:25.99 | 0 | 0 |
| 187 | skuzzzy | 1:25.99 | 0 | 0 |
| 187 | Emerald_Pick | 1:25.99 | 0 | 0 |
| 187 | MyurrDurr | 1:25.99 | 0 | 0 |
| 187 | Dosilox | 1:25.99 | 0 | 0 |
| 193 | // Vaffe | 1:26.00 | 0 | 0 |
| 193 | Jappen | 1:26.00 | 0 | 0 |
| 193 | Gyodesis | 1:26.00 | 0 | 0 |
| 196 | Keemu | 1:26.01 | 0 | 0 |
| 196 | Frayboy15 | 1:26.01 | 0 | 0 |
| 196 | Norz-Öril'Kern | 1:26.01 | 0 | 0 |
| 196 | Monark10 | 1:26.01 | 0 | 0 |
| 196 | OnyxLock | 1:26.01 | 0 | 0 |
| 201 | Timme701 | 1:26.02 | 0 | 0 |
| 202 | Mr. $7.63 | 1:26.03 | 0 | 0 |
| 202 | s00 | 1:26.03 | 0 | 0 |
| 202 | ReallyDumbFox | 1:26.03 | 0 | 0 |
| 205 | Lorethys | 1:26.05 | 0 | 0 |
| 206 | Kashuzu | 1:26.06 | 0 | 0 |
| 207 | bacon | 1:26.07 | 0 | 0 |
| 207 | JustSolLotus | 1:26.07 | 0 | 0 |
| 209 | Mamuuh | 1:26.09 | 0 | 0 |
| 209 | Whitender | 1:26.09 | 0 | 0 |
| 211 | Jesster | 1:26.10 | 0 | 0 |
| 211 | Deathhim | 1:26.10 | 0 | 0 |
| 213 | Epsilon_Knight | 1:26.11 | 0 | 0 |
| 213 | SEVEN | 1:26.11 | 0 | 0 |
| 213 | ьlогьо glогьо | 1:26.11 | 0 | 0 |
| 213 | NicholasKB19 | 1:26.11 | 0 | 0 |
| 217 | Blahaj Blast | 1:26.13 | 0 | 0 |
| 217 | Host | 1:26.13 | 0 | 0 |
| 217 | Crysest | 1:26.13 | 0 | 0 |
| 220 | enyx | 1:26.14 | 0 | 0 |
| 220 | Qioury | 1:26.14 | 0 | 0 |
| 220 | itzAndre | 1:26.14 | 0 | 0 |
| 223 | TartanKitty773 | 1:26.15 | 0 | 0 |
| 224 | Raynland McNuggets | 1:26.16 | 0 | 0 |
| 224 | Spooky | 1:26.16 | 0 | 0 |
| 224 | Storm the Snep | 1:26.16 | 0 | 0 |
| 224 | UnFefeSauvage | 1:26.16 | 0 | 0 |
| 228 | CygnusAutomata | 1:26.17 | 0 | 0 |
| 228 | Viridus | 1:26.17 | 0 | 0 |
| 230 | FireTime | 1:26.18 | 0 | 0 |
| 230 | Cygnus | 1:26.18 | 0 | 0 |
| 230 | JohnCorby | 1:26.18 | 0 | 0 |
| 230 | Sky_ | 1:26.18 | 0 | 0 |
| 234 | Iris | 1:26.19 | 0 | 0 |
| 234 | Lin | 1:26.19 | 0 | 0 |
| 234 | LP_NinLory | 1:26.19 | 0 | 0 |
| 237 | lucascool12 | 1:26.21 | 0 | 0 |
| 237 | ShoobFloof22 | 1:26.21 | 0 | 0 |
| 239 | Ozymandias | 1:26.22 | 0 | 0 |
| 239 | Moonie | 1:26.22 | 0 | 0 |
| 241 | Dabombber | 1:26.23 | 0 | 0 |
| 241 | Buck | 1:26.23 | 0 | 0 |
| 241 | DROCHEPOLK | 1:26.23 | 0 | 0 |
| 241 | k shaped economy | 1:26.23 | 0 | 0 |
| 245 | pcl219 | 1:26.24 | 0 | 0 |
| 245 | NeonChaosAwoo | 1:26.24 | 0 | 0 |
| 247 | Gandonio Banderos | 1:26.25 | 0 | 0 |
| 248 | Faeye | 1:26.26 | 0 | 0 |
| 249 | EleventyB | 1:26.27 | 0 | 0 |
| 249 | Spoon | 1:26.27 | 0 | 0 |
| 251 | Rylond | 1:26.30 | 0 | 0 |
| 251 | NyctoGT | 1:26.30 | 0 | 0 |
| 253 | Skafloodle | 1:26.31 | 0 | 0 |
| 253 | ★ ADDON ★ | 1:26.31 | 0 | 0 |
| 255 | HalfDeady | 1:26.32 | 0 | 0 |
| 255 | xoid | 1:26.32 | 0 | 0 |
| 255 | Lillian | 1:26.32 | 0 | 0 |
| 255 | HunterPlayz | 1:26.32 | 0 | 0 |
| 259 | ant | 1:26.34 | 0 | 0 |
| 259 | Nixill | 1:26.34 | 0 | 0 |
| 259 | Sippin' on paint thinner | 1:26.34 | 0 | 0 |
| 262 | Cieon | 1:26.35 | 0 | 0 |
| 262 | Arca | 1:26.35 | 0 | 0 |
| 262 | Blade | 1:26.35 | 0 | 0 |
| 262 | Audity | 1:26.35 | 0 | 0 |
| 262 | Xandrak | 1:26.35 | 0 | 0 |
| 267 | Jarek718 | 1:26.37 | 0 | 0 |
| 268 | Weskil | 1:26.38 | 0 | 0 |
| 268 | ✪ XS | 1:26.38 | 0 | 0 |
| 270 | Razgriez | 1:26.39 | 0 | 0 |
| 270 | Joan6694 | 1:26.39 | 0 | 0 |
| 270 | The K-man | 1:26.39 | 0 | 0 |
| 270 | A05Polzar | 1:26.39 | 0 | 0 |
| 274 | RedRiotRoss | 1:26.40 | 0 | 0 |
| 274 | spLoWatt | 1:26.40 | 0 | 0 |
| 274 | Nyfo | 1:26.40 | 0 | 0 |
| 274 | Nickel | 1:26.40 | 0 | 0 |
| 274 | C4tch | 1:26.40 | 0 | 0 |
| 274 | Pristine | 1:26.40 | 0 | 0 |
| 280 | DisQorded | 1:26.41 | 0 | 0 |
| 280 | Тайно дёргал | 1:26.41 | 0 | 0 |
| 282 | Detective Man | 1:26.42 | 0 | 0 |
| 282 | < blank > | 1:26.42 | 0 | 0 |
| 282 | SinfulNuggets | 1:26.42 | 0 | 0 |
| 282 | HirokiSan_ | 1:26.42 | 0 | 0 |
| 286 | LeFluffySquirrel | 1:26.43 | 0 | 0 |
| 287 | ZÖMGL | 1:26.44 | 0 | 0 |
| 287 | posture check | 1:26.44 | 0 | 0 |
| 287 | Meda | 1:26.44 | 0 | 0 |
| 287 | CoJo12 | 1:26.44 | 0 | 0 |
| 287 | Kijiel | 1:26.44 | 0 | 0 |
| 287 | Arashi | 1:26.44 | 0 | 0 |
| 293 | Gregg the Grim Reaper | 1:26.46 | 0 | 0 |
| 293 | AyyLmeow | 1:26.46 | 0 | 0 |
| 295 | kivito | 1:26.47 | 0 | 0 |
| 296 | AkioDX | 1:26.48 | 0 | 0 |
| 296 | Samu | 1:26.48 | 0 | 0 |
| 298 | Andy95 | 1:26.49 | 0 | 0 |
| 298 | Jonny | 1:26.49 | 0 | 0 |
| 298 | MJD | 1:26.49 | 0 | 0 |
| 298 | Fary_Fenny | 1:26.49 | 0 | 0 |
| 302 | UltimateTone | 1:26.50 | 0 | 0 |
| 302 | RetaliationGuy YT | 1:26.50 | 0 | 0 |
| 302 | Jam0344 | 1:26.50 | 0 | 0 |
| 305 | TinFoilMkIV | 1:26.51 | 0 | 0 |
| 305 | Topaz95 | 1:26.51 | 0 | 0 |
| 305 | Nitrium | 1:26.51 | 0 | 0 |
| 308 | Breezy™ | 1:26.52 | 0 | 0 |
| 309 | Iron_Angmar | 1:26.53 | 0 | 0 |
| 309 | IIRMPII | 1:26.53 | 0 | 0 |
| 309 | Mendreud | 1:26.53 | 0 | 0 |
| 312 | FabioTheTurtle | 1:26.54 | 0 | 0 |
| 312 | Aluka Takumashiiō | 1:26.54 | 0 | 0 |
| 314 | MP X10L | 1:26.55 | 0 | 0 |
| 314 | Edragon13 | 1:26.55 | 0 | 0 |
| 314 | Saujii2 | 1:26.55 | 0 | 0 |
| 317 | Qbetex | 1:26.56 | 0 | 0 |
| 317 | Lokamatoka | 1:26.56 | 0 | 0 |
| 319 | Mr. Doggy | 1:26.57 | 0 | 0 |
| 319 | TP-N.co PC-118 B-10001110101 | 1:26.57 | 0 | 0 |
| 319 | Warpath5156 | 1:26.57 | 0 | 0 |
| 322 | ℜ|(_TNT_)-*O_O! | 1:26.58 | 0 | 0 |
| 322 | matheus paiva | 1:26.58 | 0 | 0 |
| 322 | Roboraser | 1:26.58 | 0 | 0 |
| 325 | Grungus | 1:26.59 | 0 | 0 |
| 325 | Kypar | 1:26.59 | 0 | 0 |
| 327 | khrisround2 | 1:26.60 | 0 | 0 |
| 327 | Zusendo | 1:26.60 | 0 | 0 |
| 327 | Retromancer | 1:26.60 | 0 | 0 |
| 327 | lait | 1:26.60 | 0 | 0 |
| 327 | Lancy | 1:26.60 | 0 | 0 |
| 332 | itsukarine | 1:26.61 | 0 | 0 |
| 332 | Babou | 1:26.61 | 0 | 0 |
| 332 | -Ω- | 1:26.61 | 0 | 0 |
| 332 | Aspect™ | 1:26.61 | 0 | 0 |
| 336 | Гвоздь | 1:26.62 | 0 | 0 |
| 336 | Jack5 | 1:26.62 | 0 | 0 |
| 336 | NyaNekoEngine | 1:26.62 | 0 | 0 |
| 336 | Beastmaster 64 | 1:26.62 | 0 | 0 |
| 336 | DieselFace | 1:26.62 | 0 | 0 |
| 341 | PolychromeVirus | 1:26.64 | 0 | 0 |
| 341 | cocob4 | 1:26.64 | 0 | 0 |
| 341 | RejectedEcho | 1:26.64 | 0 | 0 |
| 341 | sizifov | 1:26.64 | 0 | 0 |
| 341 | Idle Asides | 1:26.64 | 0 | 0 |
| 346 | Kibōchen | 1:26.65 | 0 | 0 |
| 346 | LlamaOP | 1:26.65 | 0 | 0 |
| 346 | [deleted] | 1:26.65 | 0 | 0 |
| 346 | BrandonK-TN | 1:26.65 | 0 | 0 |
| 350 | Verdor | 1:26.66 | 0 | 0 |
| 350 | NoteHeart TF R U DOIN | 1:26.66 | 0 | 0 |
| 350 | ✱ Ale | 1:26.66 | 0 | 0 |
| 353 | whitefalcon | 1:26.67 | 0 | 0 |
| 353 | The_Average_Joe | 1:26.67 | 0 | 0 |
| 353 | Holo | 1:26.67 | 0 | 0 |
| 356 | snugglebottom | 1:26.68 | 0 | 0 |
| 356 | Foxy 狐の夏 | 1:26.68 | 0 | 0 |
| 358 | Ohnoitsmangofett | 1:26.69 | 0 | 0 |
| 358 | Defiance_LLK | 1:26.69 | 0 | 0 |
| 358 | Tokyoking21 | 1:26.69 | 0 | 0 |
| 361 | MxJunebug | 1:26.70 | 0 | 0 |
| 362 | [TSA] Siggi | 1:26.71 | 0 | 0 |
| 362 | BulletRain23 | 1:26.71 | 0 | 0 |
| 364 | NoBody | 1:26.72 | 0 | 0 |
| 364 | Goo4u | 1:26.72 | 0 | 0 |
| 366 | Roisinsur | 1:26.73 | 0 | 0 |
| 366 | Tem | 1:26.73 | 0 | 0 |
| 368 | BURNSCOUT | 1:26.74 | 0 | 0 |
| 368 | r2andrew | 1:26.74 | 0 | 0 |
| 368 | Prof. Pinwheel | 1:26.74 | 0 | 0 |
| 368 | mobiusosea | 1:26.74 | 0 | 0 |
| 368 | VicenteM23 | 1:26.74 | 0 | 0 |
| 373 | DeadCrap | 1:26.75 | 0 | 0 |
| 373 | rbrules | 1:26.75 | 0 | 0 |
| 373 | TTV_Sixprey | 1:26.75 | 0 | 0 |
| 373 | Vestige | 1:26.75 | 0 | 0 |
| 373 | Ashton_bro | 1:26.75 | 0 | 0 |
| 373 | markschuurman1990 | 1:26.75 | 0 | 0 |
| 373 | Awiji | 1:26.75 | 0 | 0 |
| 380 | EdgeMiles | 1:26.76 | 0 | 0 |
| 380 | SunRed | 1:26.76 | 0 | 0 |
| 382 | gaming | 1:26.77 | 0 | 0 |
| 382 | Western Ice Noodle | 1:26.77 | 0 | 0 |
| 382 | Moodeng | 1:26.77 | 0 | 0 |
| 385 | beacuase... | 1:26.78 | 0 | 0 |
| 385 | Dark Lord Elliott | 1:26.78 | 0 | 0 |
| 385 | TesserWract | 1:26.78 | 0 | 0 |
| 388 | EinFassMet | 1:26.79 | 0 | 0 |
| 388 | Winter Rose | 1:26.79 | 0 | 0 |
| 388 | Krusador | 1:26.79 | 0 | 0 |
| 388 | LobaDK | 1:26.79 | 0 | 0 |
| 392 | Finch | 1:26.80 | 0 | 0 |
| 393 | Kepslok | 1:26.81 | 0 | 0 |
| 393 | Naoroji | 1:26.81 | 0 | 0 |
| 393 | Cytrus | 1:26.81 | 0 | 0 |
| 393 | FLUFYbluBUNYman | 1:26.81 | 0 | 0 |
| 393 | Moe | 1:26.81 | 0 | 0 |
| 393 | Asuto | 1:26.81 | 0 | 0 |
| 393 | KevKirby | 1:26.81 | 0 | 0 |
| 400 | unsthuthn | 1:26.82 | 0 | 0 |
| 400 | Loopsty | 1:26.82 | 0 | 0 |
| 400 | Szczurek | 1:26.82 | 0 | 0 |
| 400 | DSmiitty | 1:26.82 | 0 | 0 |
| 404 | CS | 1:26.84 | 0 | 0 |
| 404 | Quirked-up White Boy | 1:26.84 | 0 | 0 |
| 404 | Todd Bonzalez | 1:26.84 | 0 | 0 |
| 407 | Phanntomm | 1:26.85 | 0 | 0 |
| 407 | Spacefarer | 1:26.85 | 0 | 0 |
| 407 | FireBolt96 | 1:26.85 | 0 | 0 |
| 407 | Mugen | 1:26.85 | 0 | 0 |
| 411 | moj | 1:26.86 | 0 | 0 |
| 411 | Scizigy | 1:26.86 | 0 | 0 |
| 411 | Timberdoodle | 1:26.86 | 0 | 0 |
| 414 | Dislin | 1:26.87 | 0 | 0 |
| 414 | Tav | 1:26.87 | 0 | 0 |
| 414 | 321longshot | 1:26.87 | 0 | 0 |
| 414 | Ramo | 1:26.87 | 0 | 0 |
| 414 | Cobaltfox41 | 1:26.87 | 0 | 0 |
| 419 | xanthousphoenix | 1:26.88 | 0 | 0 |
| 419 | Rei | 1:26.88 | 0 | 0 |
| 419 | Vixen | 1:26.88 | 0 | 0 |
| 419 | Resident Hobo | 1:26.88 | 0 | 0 |
| 423 | [BIT]IroncladWarbear | 1:26.89 | 0 | 0 |
| 423 | Man Ray | 1:26.89 | 0 | 0 |
| 423 | Cancer Liquid | 1:26.89 | 0 | 0 |
| 426 | Orion | 1:26.91 | 0 | 0 |
| 426 | TantasStarke | 1:26.91 | 0 | 0 |
| 426 | NH2712 | 1:26.91 | 0 | 0 |
| 429 | CampingCarl | 1:26.92 | 0 | 0 |
| 429 | Malum Umbra | 1:26.92 | 0 | 0 |
| 429 | IzPaladin | 1:26.92 | 0 | 0 |
| 429 | ADamnDerpName | 1:26.92 | 0 | 0 |
| 429 | GLUBBA | 1:26.92 | 0 | 0 |
| 434 | Notorious Big the Cat | 1:26.93 | 0 | 0 |
| 434 | Hovex the Spider | 1:26.93 | 0 | 0 |
| 436 | LittleKittyArtemis | 1:26.94 | 0 | 0 |
| 437 | Lyo | 1:26.95 | 0 | 0 |
| 437 | Anguish | 1:26.95 | 0 | 0 |
| 437 | Jimmy | 1:26.95 | 0 | 0 |
| 440 | Silver~ | 1:26.96 | 0 | 0 |
| 440 | Sky Captain | 1:26.96 | 0 | 0 |
| 440 | BattleDad | 1:26.96 | 0 | 0 |
| 440 | Eazy | 1:26.96 | 0 | 0 |
| 440 | CHICKAN SOUP | 1:26.96 | 0 | 0 |
| 440 | Mr Mysterius | 1:26.96 | 0 | 0 |
| 440 | Spark | 1:26.96 | 0 | 0 |
| 447 | Sleve McDichael | 1:26.97 | 0 | 0 |
| 447 | Binko Bonko | 1:26.97 | 0 | 0 |
| 447 | Ieuan Maiden | 1:26.97 | 0 | 0 |
| 450 | Hayaweh | 1:26.98 | 0 | 0 |
| 450 | LachenJager | 1:26.98 | 0 | 0 |
| 450 | Nioji | 1:26.98 | 0 | 0 |
| 450 | Mar_Veloz | 1:26.98 | 0 | 0 |
| 454 | Phenix85 | 1:26.99 | 0 | 0 |
| 454 | Schneidog | 1:26.99 | 0 | 0 |
| 456 | 69 Km/s | 1:27.00 | 0 | 0 |
| 456 | [Lard] Kriltch | 1:27.00 | 0 | 0 |
| 456 | zombieassaultman | 1:27.00 | 0 | 0 |
| 459 | Raxus | 1:27.01 | 0 | 0 |
| 459 | Numberkool | 1:27.01 | 0 | 0 |
| 459 | aro3o6 | 1:27.01 | 0 | 0 |
| 459 | Shady Inktail | 1:27.01 | 0 | 0 |
| 459 | OTBD | 1:27.01 | 0 | 0 |
| 464 | Luminous | 1:27.03 | 0 | 0 |
| 464 | kevinlakecity5 | 1:27.03 | 0 | 0 |
| 464 | Nirom | 1:27.03 | 0 | 0 |
| 464 | Anri Jest | 1:27.03 | 0 | 0 |
| 468 | PotatoDragon | 1:27.04 | 0 | 0 |
| 469 | Teoxx50 | 1:27.05 | 0 | 0 |
| 469 | troysmith14 | 1:27.05 | 0 | 0 |
| 469 | TTV.WordWord_ | 1:27.05 | 0 | 0 |
| 472 | Embylles | 1:27.06 | 0 | 0 |
| 472 | PinkMask | 1:27.06 | 0 | 0 |
| 472 | HaxTheCharizard | 1:27.06 | 0 | 0 |
| 475 | Shinchi Shiroi | 1:27.07 | 0 | 0 |
| 475 | CrossHawk | 1:27.07 | 0 | 0 |
| 477 | Mud | 1:27.08 | 0 | 0 |
| 477 | FR3AKuency | 1:27.08 | 0 | 0 |
| 477 | MeekiBriks | 1:27.08 | 0 | 0 |
| 477 | De_4oore | 1:27.08 | 0 | 0 |
| 477 | uydurmatik | 1:27.08 | 0 | 0 |
| 477 | danny1234331 | 1:27.08 | 0 | 0 |
| 483 | Krull | 1:27.09 | 0 | 0 |
| 483 | vert wheeler | 1:27.09 | 0 | 0 |
| 485 | Blushy Wushy | 1:27.10 | 0 | 0 |
| 485 | XIII | 1:27.10 | 0 | 0 |
| 487 | RunningMountain | 1:27.11 | 0 | 0 |
| 487 | saphienne | 1:27.11 | 0 | 0 |
| 487 | Alistair504 | 1:27.11 | 0 | 0 |
| 490 | Kaliphear | 1:27.12 | 0 | 0 |
| 490 | Numerousluke | 1:27.12 | 0 | 0 |
| 490 | ARU | 1:27.12 | 0 | 0 |
| 493 | Birb | 1:27.13 | 0 | 0 |
| 493 | AZERA | 1:27.13 | 0 | 0 |
| 493 | SQUEEZU | 1:27.13 | 0 | 0 |
| 493 | Anrix | 1:27.13 | 0 | 0 |
| 493 | Zeta | 1:27.13 | 0 | 0 |
| 498 | Pfirsichgelee | 1:27.14 | 0 | 0 |
| 498 | Mambo | 1:27.14 | 0 | 0 |
| 500 | 16aroth6 | 1:27.15 | 0 | 0 |
| 500 | J S t y I e | 1:27.15 | 0 | 0 |
| 500 | StepwiseUrchin | 1:27.15 | 0 | 0 |
| 500 | TheGigaBrain | 1:27.15 | 0 | 0 |
| 500 | 湾岸 | Taz | 1:27.15 | 0 | 0 |
| 505 | ZedAxiom | 1:27.17 | 0 | 0 |
| 505 | Losty | 1:27.17 | 0 | 0 |
| 505 | DANTE_101 | 1:27.17 | 0 | 0 |
| 508 | Titansmasher | 1:27.19 | 0 | 0 |
| 508 | Dimanchella | 1:27.19 | 0 | 0 |
| 510 | Müllabholer | 1:27.20 | 0 | 0 |
| 510 | KingSizeKid | 1:27.20 | 0 | 0 |
| 512 | Abuumis | 1:27.21 | 0 | 0 |
| 512 | LunarStarlight | 1:27.21 | 0 | 0 |
| 514 | Karakanov | 1:27.22 | 0 | 0 |
| 514 | DemoKnight Or Busty | 1:27.22 | 0 | 0 |
| 514 | Cornholio | 1:27.22 | 0 | 0 |
| 514 | 1:27.22 | 0 | 0 | |
| 518 | Generic Gamer Gurl | 1:27.23 | 0 | 0 |
| 518 | Bean | 1:27.23 | 0 | 0 |
| 518 | Yuan36 | 1:27.23 | 0 | 0 |
| 518 | Raiyson Terrorwing | 1:27.23 | 0 | 0 |
| 522 | Lazarus | 1:27.24 | 0 | 0 |
| 522 | Jercasem | 1:27.24 | 0 | 0 |
| 522 | MERC | 1:27.24 | 0 | 0 |
| 522 | Greenfire DX | 1:27.24 | 0 | 0 |
| 526 | 黒 Crow | 1:27.25 | 0 | 0 |
| 526 | The Mighty Condor | 1:27.25 | 0 | 0 |
| 528 | Slater | 1:27.26 | 0 | 0 |
| 528 | -zaz23- | 1:27.26 | 0 | 0 |
| 530 | Glioburd | 1:27.27 | 0 | 0 |
| 530 | Kincaid | 1:27.27 | 0 | 0 |
| 532 | Maszo Pok | 1:27.28 | 0 | 0 |
| 533 | Knight | 1:27.29 | 0 | 0 |
| 533 | SmokedScreen | 1:27.29 | 0 | 0 |
| 533 | MythiCyrus | 1:27.29 | 0 | 0 |
| 533 | Ding | 1:27.29 | 0 | 0 |
| 537 | Enso | 1:27.30 | 0 | 0 |
| 537 | Ayre | 1:27.30 | 0 | 0 |
| 539 | Treme | 1:27.31 | 0 | 0 |
| 539 | Ultor | 1:27.31 | 0 | 0 |
| 539 | Kizo~ | 1:27.31 | 0 | 0 |
| 542 | Wolf | 1:27.32 | 0 | 0 |
| 542 | Catrix | 1:27.32 | 0 | 0 |
| 542 | ASCII_Atlas | 1:27.32 | 0 | 0 |
| 542 | we is literally the elfs | 1:27.32 | 0 | 0 |
| 546 | Vented5093 | 1:27.33 | 0 | 0 |
| 547 | MålarN | 1:27.34 | 0 | 0 |
| 547 | Booler | 1:27.34 | 0 | 0 |
| 547 | edc | 1:27.34 | 0 | 0 |
| 547 | Сосёна | 1:27.34 | 0 | 0 |
| 551 | Jace | 1:27.35 | 0 | 0 |
| 551 | Taelu | 1:27.35 | 0 | 0 |
| 551 | KoTbKa | 1:27.35 | 0 | 0 |
| 554 | Blacky Stranger | 1:27.36 | 0 | 0 |
| 554 | Noël | 1:27.36 | 0 | 0 |
| 556 | Lofthouse | 1:27.37 | 0 | 0 |
| 557 | Nicholas | 1:27.38 | 0 | 0 |
| 557 | Helios | 1:27.38 | 0 | 0 |
| 557 | EnderKill98 | 1:27.38 | 0 | 0 |
| 557 | TheFluffyDragon/JBSTheGamer | 1:27.38 | 0 | 0 |
| 561 | Grafitter | 1:27.39 | 0 | 0 |
| 561 | EmeraldSlash | 1:27.39 | 0 | 0 |
| 561 | EchoTrash ♀ (Alt) | 1:27.39 | 0 | 0 |
| 564 | Zomitsu | 1:27.40 | 0 | 0 |
| 564 | Chaks | 1:27.40 | 0 | 0 |
| 564 | Pompous Whale | 1:27.40 | 0 | 0 |
| 564 | Neoblastz | 1:27.40 | 0 | 0 |
| 568 | Saberik | 1:27.41 | 0 | 0 |
| 569 | Monarch | 1:27.42 | 0 | 0 |
| 569 | Laudy | 1:27.42 | 0 | 0 |
| 569 | Zabava | 1:27.42 | 0 | 0 |
| 569 | ElecTream | 1:27.42 | 0 | 0 |
| 573 | Yak-Yo! | 1:27.43 | 0 | 0 |
| 573 | Bob Ross | 1:27.43 | 0 | 0 |
| 573 | Marsh.bit | 1:27.43 | 0 | 0 |
| 573 | Onneyon | 1:27.43 | 0 | 0 |
| 577 | Mike | 1:27.45 | 0 | 0 |
| 578 | phfphefph | 1:27.46 | 0 | 0 |
| 579 | RenZõÓ | 1:27.47 | 0 | 0 |
| 579 | SoundAphid | 1:27.47 | 0 | 0 |
| 579 | Player145 | 1:27.47 | 0 | 0 |
| 582 | Grubby Fingers | 1:27.48 | 0 | 0 |
| 582 | NoticeMeSempai | 1:27.48 | 0 | 0 |
| 582 | Delhjiko | 1:27.48 | 0 | 0 |
| 582 | Jeats | 1:27.48 | 0 | 0 |
| 582 | Chase | 1:27.48 | 0 | 0 |
| 587 | Hungolomghononoloughongous | 1:27.50 | 0 | 0 |
| 587 | Eskora | 1:27.50 | 0 | 0 |
| 587 | dollcorpsething | 1:27.50 | 0 | 0 |
| 590 | racercowan | 1:27.51 | 0 | 0 |
| 590 | Tekka Croe | 1:27.51 | 0 | 0 |
| 590 | MacktotheFuture | 1:27.51 | 0 | 0 |
| 590 | MokkaBot Ch. モカお茶 | 1:27.51 | 0 | 0 |
| 594 | Astrolight | 1:27.52 | 0 | 0 |
| 594 | Cylthir | 1:27.52 | 0 | 0 |
| 596 | LinKuei | 1:27.54 | 0 | 0 |
| 597 | Tanikaze | 1:27.55 | 0 | 0 |
| 597 | LordPotato.json | 1:27.55 | 0 | 0 |
| 599 | darthbob555 | 1:27.56 | 0 | 0 |
| 600 | KaMozo25 | 1:27.57 | 0 | 0 |
| 601 | HockeyHero7 | 1:27.58 | 0 | 0 |
| 601 | Togi15 | 1:27.58 | 0 | 0 |
| 601 | Qちゃん | 1:27.58 | 0 | 0 |
| 601 | Akazs | 1:27.58 | 0 | 0 |
| 605 | MidnuRidge | 1:27.59 | 0 | 0 |
| 605 | TG300 | 1:27.59 | 0 | 0 |
| 607 | S.Kappelmann | 1:27.60 | 0 | 0 |
| 608 | imxRaven | 1:27.61 | 0 | 0 |
| 608 | fun | 1:27.61 | 0 | 0 |
| 608 | [NR] Miyu012 | 1:27.61 | 0 | 0 |
| 608 | diktator | 1:27.61 | 0 | 0 |
| 612 | trojan | 1:27.62 | 0 | 0 |
| 613 | Lucky Lagomorph | 1:27.65 | 0 | 0 |
| 614 | IfritDMC | 1:27.66 | 0 | 0 |
| 614 | JeffTheBruh | 1:27.66 | 0 | 0 |
| 616 | dinkleb3rg | 1:27.67 | 0 | 0 |
| 616 | stev064 | 1:27.67 | 0 | 0 |
| 616 | EndOfNights | 1:27.67 | 0 | 0 |
| 619 | krakentoa | 1:27.69 | 0 | 0 |
| 619 | IDCkata | 1:27.69 | 0 | 0 |
| 619 | Zinja | 1:27.69 | 0 | 0 |
| 619 | BlackOnyx262 | 1:27.69 | 0 | 0 |
| 623 | Roggee | 1:27.70 | 0 | 0 |
| 623 | PlΣXi | 1:27.70 | 0 | 0 |
| 625 | Suspect | 1:27.71 | 0 | 0 |
| 626 | Shadiest | 1:27.72 | 0 | 0 |
| 627 | Szabo | 1:27.73 | 0 | 0 |
| 628 | Bistdocs | 1:27.75 | 0 | 0 |
| 629 | Cyxxus | 1:27.76 | 0 | 0 |
| 629 | Mush_r00mboy | 1:27.76 | 0 | 0 |
| 631 | Tvman318 | 1:27.78 | 0 | 0 |
| 632 | cheif22 | 1:27.79 | 0 | 0 |
| 633 | Synchronize | 1:27.80 | 0 | 0 |
| 633 | TheWanderer05 | 1:27.80 | 0 | 0 |
| 633 | AmberEmpress | 1:27.80 | 0 | 0 |
| 636 | MIAT | 1:27.81 | 0 | 0 |
| 636 | E0N | 1:27.81 | 0 | 0 |
| 638 | Boucoque | 1:27.82 | 0 | 0 |
| 638 | esumbl pruhumsn | 1:27.82 | 0 | 0 |
| 640 | Looks To The Moon | 1:27.83 | 0 | 0 |
| 641 | Velimor | 1:27.84 | 0 | 0 |
| 641 | Nightmare | 1:27.84 | 0 | 0 |
| 643 | [deleted] | 1:27.85 | 0 | 0 |
| 644 | Noah | 1:27.86 | 0 | 0 |
| 644 | Red | 1:27.86 | 0 | 0 |
| 646 | Sunkaaaaaaaaan | 1:27.88 | 0 | 0 |
| 646 | Relume | 1:27.88 | 0 | 0 |
| 646 | ☺ | 1:27.88 | 0 | 0 |
| 649 | Splat | 1:27.89 | 0 | 0 |
| 650 | Mired | 1:27.90 | 0 | 0 |
| 650 | Snib | 1:27.90 | 0 | 0 |
| 650 | [deleted] | 1:27.90 | 0 | 0 |
| 653 | Raiden925 | 1:27.93 | 0 | 0 |
| 654 | Sir Johan | 1:27.94 | 0 | 0 |
| 654 | Arphey01 | 1:27.94 | 0 | 0 |
| 656 | WUG | 1:27.95 | 0 | 0 |
| 656 | Zelteir | 1:27.95 | 0 | 0 |
| 656 | Onrustige Knijper | 1:27.95 | 0 | 0 |
| 659 | Bohemius | 1:27.97 | 0 | 0 |
| 660 | Derpahkiin | 1:27.98 | 0 | 0 |
| 660 | NightxBandit | 1:27.98 | 0 | 0 |
| 662 | cr_ | 1:27.99 | 0 | 0 |
| 662 | fischpferd | 1:27.99 | 0 | 0 |
| 662 | Mivhs | 1:27.99 | 0 | 0 |
| 665 | THE_PINHEAD | 1:28.00 | 0 | 0 |
| 665 | Leviticus Blue | 1:28.00 | 0 | 0 |
| 665 | Yurirollrrir | 1:28.00 | 0 | 0 |
| 665 | gwebbi | 1:28.00 | 0 | 0 |
| 669 | Uranos | 1:28.01 | 0 | 0 |
| 670 | dryco | 1:28.03 | 0 | 0 |
| 670 | elbrodini | 1:28.03 | 0 | 0 |
| 672 | V_ninedude | 1:28.04 | 0 | 0 |
| 672 | Skippy Peanut Butter | 1:28.04 | 0 | 0 |
| 672 | GlueMan | 1:28.04 | 0 | 0 |
| 675 | Sniggles | 1:28.05 | 0 | 0 |
| 676 | Lumiflag | 1:28.06 | 0 | 0 |
| 677 | Aotia | Qubic | 1:28.07 | 0 | 0 |
| 678 | Draq | 1:28.08 | 0 | 0 |
| 678 | Jason Bennington | 1:28.08 | 0 | 0 |
| 678 | TaoSen | 1:28.08 | 0 | 0 |
| 681 | Rustal | 1:28.09 | 0 | 0 |
| 681 | thom6777 | 1:28.09 | 0 | 0 |
| 683 | SunlessSoph | 1:28.12 | 0 | 0 |
| 683 | aleda | 1:28.12 | 0 | 0 |
| 685 | DeedleFake | 1:28.14 | 0 | 0 |
| 685 | CleverlyStoopid | 1:28.14 | 0 | 0 |
| 685 | ℛ𝓊𝓃𝑒 | 1:28.14 | 0 | 0 |
| 688 | Pyro | 1:28.15 | 0 | 0 |
| 688 | FRX | 1:28.15 | 0 | 0 |
| 688 | Drac7584 | 1:28.15 | 0 | 0 |
| 688 | Octane | 1:28.15 | 0 | 0 |
| 692 | Mr_Lego4 | 1:28.17 | 0 | 0 |
| 693 | dcawthon41 | 1:28.19 | 0 | 0 |
| 694 | Neon Flash | 1:28.20 | 0 | 0 |
| 694 | IgoRexa | 1:28.20 | 0 | 0 |
| 696 | ExcoRage | 1:28.22 | 0 | 0 |
| 696 | Magaroz | 1:28.22 | 0 | 0 |
| 698 | PowerMeep | 1:28.23 | 0 | 0 |
| 699 | eternal | 1:28.24 | 0 | 0 |
| 700 | Lukas | 1:28.25 | 0 | 0 |
| 701 | Garvado | 1:28.26 | 0 | 0 |
| 702 | Aquila | 1:28.27 | 0 | 0 |
| 703 | Zephyr | 1:28.28 | 0 | 0 |
| 704 | |SPQR| Toruk | 1:28.29 | 0 | 0 |
| 705 | ^8BlackSkull | 1:28.30 | 0 | 0 |
| 705 | The Dank Magician | 1:28.30 | 0 | 0 |
| 705 | Vega | 1:28.30 | 0 | 0 |
| 705 | generally incompetent | 1:28.30 | 0 | 0 |
| 709 | Drakkensf | 1:28.32 | 0 | 0 |
| 710 | Playinghearts | 1:28.33 | 0 | 0 |
| 711 | Jepplez | 1:28.34 | 0 | 0 |
| 712 | ThatGuyBrit | 1:28.37 | 0 | 0 |
| 713 | Fromage | 1:28.40 | 0 | 0 |
| 714 | Sunzara | 1:28.42 | 0 | 0 |
| 715 | Krogoth | 1:28.45 | 0 | 0 |
| 715 | ✪Сталин✪ | 1:28.45 | 0 | 0 |
| 715 | Blazer777 | 1:28.45 | 0 | 0 |
| 718 | GoodNoise | 1:28.46 | 0 | 0 |
| 718 | Spearmint | 1:28.46 | 0 | 0 |
| 720 | 204863 | 1:28.50 | 0 | 0 |
| 721 | Xiotis | 1:28.51 | 0 | 0 |
| 722 | Milky | 1:28.53 | 0 | 0 |
| 723 | Super_Shadow57 | 1:28.57 | 0 | 0 |
| 724 | Pryzee7 | 1:28.59 | 0 | 0 |
| 724 | Zero_Antlax | 1:28.59 | 0 | 0 |
| 726 | Chopsaru | 1:28.60 | 0 | 0 |
| 727 | Joti | 1:28.61 | 0 | 0 |
| 728 | Seshiruseth | 1:28.62 | 0 | 0 |
| 728 | The Usual Suspect | 1:28.62 | 0 | 0 |
| 728 | lav. | 1:28.62 | 0 | 0 |
| 731 | Frozen Dino | 1:28.63 | 0 | 0 |
| 732 | Irradiated Irridium | 1:28.65 | 0 | 0 |
| 732 | 猫かわいい | 1:28.65 | 0 | 0 |
| 734 | Archi | 1:28.66 | 0 | 0 |
| 735 | ASnarkyOwl2 | 1:28.67 | 0 | 0 |
| 736 | The Z | 1:28.69 | 0 | 0 |
| 737 | R. | 1:28.70 | 0 | 0 |
| 738 | Final | 1:28.71 | 0 | 0 |
| 739 | Jester Thomas | 1:28.72 | 0 | 0 |
| 739 | Davonavik | 1:28.72 | 0 | 0 |
| 741 | joltz | 1:28.73 | 0 | 0 |
| 742 | Vorpal Soul | 1:28.74 | 0 | 0 |
| 743 | TheDivineJames | 1:28.77 | 0 | 0 |
| 744 | brain low | 1:28.79 | 0 | 0 |
| 745 | Skuzzles | 1:28.81 | 0 | 0 |
| 745 | Nick-O | 1:28.81 | 0 | 0 |
| 747 | Otomatac | 1:28.82 | 0 | 0 |
| 748 | Nimish | 1:28.83 | 0 | 0 |
| 749 | Combat Corpse | 1:28.84 | 0 | 0 |
| 749 | Redox | 1:28.84 | 0 | 0 |
| 751 | Taro | 1:28.86 | 0 | 0 |
| 752 | NUKA | 1:28.88 | 0 | 0 |
| 753 | Ch1ll4x333 | 1:28.91 | 0 | 0 |
| 754 | DJ McBirde | 1:28.93 | 0 | 0 |
| 755 | x | 1:28.94 | 0 | 0 |
| 756 | SenseofCLouD | 1:28.97 | 0 | 0 |
| 756 | Entropy can't catch me. | 1:28.97 | 0 | 0 |
| 756 | Lil O.D. | 1:28.97 | 0 | 0 |
| 759 | Diabetis4life | 1:29.00 | 0 | 0 |
| 760 | Disconnected | 1:29.02 | 0 | 0 |
| 761 | Gary | 1:29.03 | 0 | 0 |
| 761 | Helsinki Farter | 1:29.03 | 0 | 0 |
| 763 | Alex | 1:29.05 | 0 | 0 |
| 763 | Danny Phantom | 1:29.05 | 0 | 0 |
| 763 | Amuzet | 1:29.05 | 0 | 0 |
| 766 | Vortexesz | 1:29.07 | 0 | 0 |
| 767 | Caspetic | 1:29.08 | 0 | 0 |
| 768 | Fleabag | 1:29.13 | 0 | 0 |
| 768 | Kierahn_ | 1:29.13 | 0 | 0 |
| 770 | [iNk] Primus | 1:29.15 | 0 | 0 |
| 771 | AriSanna | 1:29.16 | 0 | 0 |
| 772 | bloaty | 1:29.17 | 0 | 0 |
| 773 | PalmTopDuck | 1:29.22 | 0 | 0 |
| 773 | 1illGamer | 1:29.22 | 0 | 0 |
| 775 | Just Raj | 1:29.23 | 0 | 0 |
| 776 | King Cactus | 1:29.25 | 0 | 0 |
| 777 | paraleltoast | 1:29.29 | 0 | 0 |
| 778 | Kyud | 1:29.38 | 0 | 0 |
| 779 | Saint Pierre | 1:29.41 | 0 | 0 |
| 779 | Life of π | 1:29.41 | 0 | 0 |
| 781 | onyxglow | 1:29.42 | 0 | 0 |
| 782 | TheMelonGod | 1:29.46 | 0 | 0 |
| 783 | NK - Néko | 1:29.53 | 0 | 0 |
| 784 | Elfiann | 1:29.54 | 0 | 0 |
| 785 | Partybushero | 1:29.56 | 0 | 0 |
| 786 | Nellexten | 1:29.57 | 0 | 0 |
| 787 | Grey | 1:29.59 | 0 | 0 |
| 788 | boujore | 1:29.60 | 0 | 0 |
| 789 | Tilin | 1:29.62 | 0 | 0 |
| 790 | and kevin bacon | 1:29.63 | 0 | 0 |
| 790 | Indomitus 40k | 1:29.63 | 0 | 0 |
| 792 | cursedpotato | 1:29.64 | 0 | 0 |
| 793 | MoonLight | 1:29.67 | 0 | 0 |
| 794 | Shroom | 1:29.68 | 0 | 0 |
| 795 | Corvus and Crater | 1:29.69 | 0 | 0 |
| 796 | Sagara | 1:29.71 | 0 | 0 |
| 797 | Jodrasch | 1:29.72 | 0 | 0 |
| 798 | Dracozorack | 1:29.75 | 0 | 0 |
| 798 | Rain Dacernis | 1:29.75 | 0 | 0 |
| 800 | One Ghosty Boi | 1:29.76 | 0 | 0 |
| 800 | James "Papa Het" Hetfield | 1:29.76 | 0 | 0 |
| 802 | Velocitas | 1:29.79 | 0 | 0 |
| 803 | Recapes | 1:29.80 | 0 | 0 |
| 803 | polybius99 | 1:29.80 | 0 | 0 |
| 805 | TylerGreene17 | 1:29.81 | 0 | 0 |
| 806 | Bernd das Bier | 1:29.82 | 0 | 0 |
| 807 | KingSpammerNerd | 1:29.83 | 0 | 0 |
| 808 | JacquetheRipper | 1:29.84 | 0 | 0 |
| 808 | Greeny^ | 1:29.84 | 0 | 0 |
| 810 | igi-111 | 1:29.91 | 0 | 0 |
| 810 | Toppincattin | 1:29.91 | 0 | 0 |
| 812 | Shamus | 1:29.95 | 0 | 0 |
| 813 | Gyarados | 1:29.97 | 0 | 0 |
| 814 | Pocuk | 1:29.98 | 0 | 0 |
| 814 | TheArka96 | 1:29.98 | 0 | 0 |
| 814 | Laughter | 1:29.98 | 0 | 0 |
| 814 | Tuna | 1:29.98 | 0 | 0 |
| 814 | Hayden | 1:29.98 | 0 | 0 |
| 819 | mastern | 1:29.99 | 0 | 0 |
| 820 | samson13 | 1:30.00 | 0 | 0 |
| 821 | Kosvid | 1:30.01 | 0 | 0 |
| 822 | TacticalTaco | 1:30.05 | 0 | 0 |
| 822 | olivqe | 1:30.05 | 0 | 0 |
| 824 | baakstaff | 1:30.07 | 0 | 0 |
| 825 | oHly | 1:30.08 | 0 | 0 |
| 825 | Talzor | 1:30.08 | 0 | 0 |
| 827 | The Male Gamer | 1:30.12 | 0 | 0 |
| 828 | Grev "The Editor" | 1:30.16 | 0 | 0 |
| 829 | ^1WᴀʀᴘWɪʀᴇ | 1:30.17 | 0 | 0 |
| 829 | AAAAA | 1:30.17 | 0 | 0 |
| 831 | Anga252 | 1:30.20 | 0 | 0 |
| 832 | Vegetable Broth | 1:30.21 | 0 | 0 |
| 832 | A̶͓̓z̷͓̍ũ̴̩r̷͔͐e̴ | 1:30.21 | 0 | 0 |
| 834 | Pteroborne | 1:30.23 | 0 | 0 |
| 835 | LOLO FAK | 1:30.28 | 0 | 0 |
| 835 | Tarant_Horton | 1:30.28 | 0 | 0 |
| 837 | Cathy | 1:30.30 | 0 | 0 |
| 837 | KWP | 1:30.30 | 0 | 0 |
| 839 | Shaka | 1:30.31 | 0 | 0 |
| 839 | bloxor44 | 1:30.31 | 0 | 0 |
| 839 | Lunas | 1:30.31 | 0 | 0 |
| 842 | T8Destroyer | 1:30.33 | 0 | 0 |
| 843 | Beetus | 1:30.35 | 0 | 0 |
| 844 | Dany | 1:30.40 | 0 | 0 |
| 844 | I Misclicked | 1:30.40 | 0 | 0 |
| 846 | Racoonboi | 1:30.43 | 0 | 0 |
| 847 | Graysongdl | 1:30.46 | 0 | 0 |
| 848 | PlatinumAstra | 1:30.49 | 0 | 0 |
| 849 | PurpleSuede | 1:30.53 | 0 | 0 |
| 850 | Rodum | 1:30.54 | 0 | 0 |
| 851 | Koros Antavo | 1:30.58 | 0 | 0 |
| 852 | YasMaster141 | 1:30.60 | 0 | 0 |
| 852 | Jeems-Sama | 1:30.60 | 0 | 0 |
| 852 | humperdink | 1:30.60 | 0 | 0 |
| 852 | Traetors | 1:30.60 | 0 | 0 |
| 856 | Lunchism | 1:30.63 | 0 | 0 |
| 857 | PH0NZ3 | 1:30.64 | 0 | 0 |
| 858 | PDDobster | 1:30.65 | 0 | 0 |
| 859 | Shooter | 1:30.66 | 0 | 0 |
| 860 | Dubblr | 1:30.67 | 0 | 0 |
| 861 | Random Casual | 1:30.68 | 0 | 0 |
| 861 | Gray | 1:30.68 | 0 | 0 |
| 863 | [deleted] | 1:30.69 | 0 | 0 |
| 864 | Sunchipp Games | 1:30.70 | 0 | 0 |
| 865 | wXc Illusion | 1:30.71 | 0 | 0 |
| 866 | Isomorph | 1:30.74 | 0 | 0 |
| 866 | SparraNova | 1:30.74 | 0 | 0 |
| 868 | ossizorg | 1:30.77 | 0 | 0 |
| 868 | MFHxTiptoe | 1:30.77 | 0 | 0 |
| 870 | Charlotte | 1:30.78 | 0 | 0 |
| 870 | Fushiggy | 1:30.78 | 0 | 0 |
| 870 | Echor | 1:30.78 | 0 | 0 |
| 873 | Vypr | 1:30.80 | 0 | 0 |
| 874 | [BAD] | 1:30.83 | 0 | 0 |
| 874 | Cyrus Orakuru | 1:30.83 | 0 | 0 |
| 876 | Cody | 1:30.86 | 0 | 0 |
| 877 | Therio | 1:30.88 | 0 | 0 |
| 878 | Dr Axton | 1:30.89 | 0 | 0 |
| 878 | Glypse | 1:30.89 | 0 | 0 |
| 880 | ICYVEVO | 1:30.92 | 0 | 0 |
| 881 | Tuli | 1:30.93 | 0 | 0 |
| 882 | BluntButters | 1:30.94 | 0 | 0 |
| 882 | BombLance | 1:30.94 | 0 | 0 |
| 884 | FyreWall | 1:30.95 | 0 | 0 |
| 885 | Gemini | 1:30.96 | 0 | 0 |
| 886 | A Very Scary Skelly | 1:30.97 | 0 | 0 |
| 887 | [NBD] PizzaHutDoxen | 1:30.98 | 0 | 0 |
| 887 | Rybot | 1:30.98 | 0 | 0 |
| 887 | Chronotion | 1:30.98 | 0 | 0 |
| 890 | Pesky Bee | 1:30.99 | 0 | 0 |
| 890 | Toastmaster | 1:30.99 | 0 | 0 |
| 892 | CephaloPOTUS | 1:31.00 | 0 | 0 |
| 892 | MAT D.R.⎛⎝≥⏝⏝≤⎠⎞ | 1:31.00 | 0 | 0 |
| 894 | FreakingAwesomeWooper | 1:31.01 | 0 | 0 |
| 895 | DethHoun | 1:31.02 | 0 | 0 |
| 896 | The Mighty Spoon™ | 1:31.06 | 0 | 0 |
| 896 | PayPalMeFuzzby | 1:31.06 | 0 | 0 |
| 898 | Squidamouche | 1:31.10 | 0 | 0 |
| 899 | moth | 1:31.14 | 0 | 0 |
| 900 | BedrokiV | 1:31.15 | 0 | 0 |
| 901 | Brainclean | 1:31.18 | 0 | 0 |
| 901 | Teh№ [AMP] | 1:31.18 | 0 | 0 |
| 903 | Taladro Percutor Klugan | 1:31.19 | 0 | 0 |
| 904 | Klaneoa | 1:31.20 | 0 | 0 |
| 905 | Meep | 1:31.22 | 0 | 0 |
| 905 | canem | Phantasmagoria | 1:31.22 | 0 | 0 |
| 907 | nameless hound #1872 | 1:31.23 | 0 | 0 |
| 908 | Bananbulance | 1:31.24 | 0 | 0 |
| 908 | gmatsam32 | 1:31.24 | 0 | 0 |
| 910 | Big Chungus2010 | 1:31.26 | 0 | 0 |
| 911 | Fatal Destiny98 | 1:31.32 | 0 | 0 |
| 912 | Dinrael | 1:31.35 | 0 | 0 |
| 913 | Dexton VI | 1:31.40 | 0 | 0 |
| 914 | 문경왕개미 | 1:31.43 | 0 | 0 |
| 915 | Shock Inazuma | Super Silly!!!!! | 1:31.46 | 0 | 0 |
| 916 | Cass* | 1:31.47 | 0 | 0 |
| 917 | D.Dagger22 | 1:31.48 | 0 | 0 |
| 918 | d0rsk | 1:31.50 | 0 | 0 |
| 918 | EndlessRayn | 1:31.50 | 0 | 0 |
| 920 | † INFY † | 1:31.52 | 0 | 0 |
| 921 | O' The Iron E | 1:31.55 | 0 | 0 |
| 922 | Sunaryt | 1:31.57 | 0 | 0 |
| 923 | Wollkopf | 1:31.59 | 0 | 0 |
| 923 | Chromnostic | 1:31.59 | 0 | 0 |
| 925 | The Prophet | 1:31.62 | 0 | 0 |
| 925 | Yigrill | 1:31.62 | 0 | 0 |
| 927 | PoGLIZZION CHAMPIZZION | 1:31.63 | 0 | 0 |
| 928 | hidden pool king | 1:31.65 | 0 | 0 |
| 929 | Deadeye_X7 | 1:31.67 | 0 | 0 |
| 930 | Boomii | 1:31.68 | 0 | 0 |
| 931 | Gatinho :3 | 1:31.69 | 0 | 0 |
| 932 | Deyla | 1:31.73 | 0 | 0 |
| 932 | Heinous Odor | 1:31.73 | 0 | 0 |
| 934 | toniqe53 | 1:31.74 | 0 | 0 |
| 935 | LemonIsland | 1:31.75 | 0 | 0 |
| 935 | Enzyme Machine | 1:31.75 | 0 | 0 |
| 935 | Matt's Tech | 1:31.75 | 0 | 0 |
| 938 | Manatee | 1:31.76 | 0 | 0 |
| 939 | EzraW118 | 1:31.77 | 0 | 0 |
| 940 | maddison135 | 1:31.79 | 0 | 0 |
| 941 | Maverick71 | 1:31.80 | 0 | 0 |
| 942 | kinP inilletroT | 1:31.82 | 0 | 0 |
| 943 | Ultimate Level 100 Vegan Wizard | 1:31.83 | 0 | 0 |
| 943 | The Box | 1:31.83 | 0 | 0 |
| 943 | AVeryTastyCactus | 1:31.83 | 0 | 0 |
| 946 | Stracciatella | 1:31.87 | 0 | 0 |
| 946 | JONTY | 1:31.87 | 0 | 0 |
| 948 | Krazy8s | 1:31.88 | 0 | 0 |
| 949 | A Flying Sloth | 1:31.92 | 0 | 0 |
| 950 | Brando Multin | 1:31.93 | 0 | 0 |
| 951 | Phoenixstorm | 1:31.95 | 0 | 0 |
| 952 | Zodiac | 1:31.96 | 0 | 0 |
| 953 | Gloþ | 1:31.97 | 0 | 0 |
| 953 | Carrott | 1:31.97 | 0 | 0 |
| 955 | Jaded Tyrant | 1:31.99 | 0 | 0 |
| 956 | TehWongOne | 1:32.01 | 0 | 0 |
| 957 | l2uStefka | 1:32.02 | 0 | 0 |
| 958 | Peka | 1:32.05 | 0 | 0 |
| 959 | Megacrafter127 | 1:32.08 | 0 | 0 |
| 960 | Torja! | 1:32.09 | 0 | 0 |
| 961 | Uganda Knuckles | 1:32.15 | 0 | 0 |
| 962 | singingsteel | 1:32.18 | 0 | 0 |
| 963 | Fausthieb | 1:32.21 | 0 | 0 |
| 964 | KLABOEM | 1:32.24 | 0 | 0 |
| 965 | REAL Dippy the Ghost! | 1:32.25 | 0 | 0 |
| 965 | Mr Chip | 1:32.25 | 0 | 0 |
| 967 | Pacnakes | 1:32.27 | 0 | 0 |
| 968 | Metalbeast75 | 1:32.30 | 0 | 0 |
| 969 | FAT CONTROLLER | 1:32.31 | 0 | 0 |
| 969 | BlacKat | 1:32.31 | 0 | 0 |
| 971 | SHAaD_Sicod | 1:32.34 | 0 | 0 |
| 972 | Lliane | 1:32.35 | 0 | 0 |
| 973 | Monument576 | 1:32.36 | 0 | 0 |
| 974 | ElHombre86 | 1:32.37 | 0 | 0 |
| 975 | Mister JT | 1:32.38 | 0 | 0 |
| 976 | Frostnetz | 1:32.40 | 0 | 0 |
| 977 | Zodijackyl Light | 1:32.43 | 0 | 0 |
| 978 | Billy Bat | 1:32.45 | 0 | 0 |
| 979 | Lasagna | 1:32.46 | 0 | 0 |
| 980 | Nightingale | 1:32.48 | 0 | 0 |
| 980 | Mewasp | 1:32.48 | 0 | 0 |
| 982 | EteraKagekara | 1:32.49 | 0 | 0 |
| 982 | c_Corundum | 1:32.49 | 0 | 0 |
| 984 | MarsDevastater | 1:32.50 | 0 | 0 |
| 984 | Darkness | 1:32.50 | 0 | 0 |
| 986 | ONLY STRAIGHT IS NORMAL, FREAKS! | 1:32.51 | 0 | 0 |
| 987 | TwoMixups | 1:32.52 | 0 | 0 |
| 988 | Darklight | 1:32.57 | 0 | 0 |
| 988 | Holdoye | 1:32.57 | 0 | 0 |
| 990 | Luis Glacius | 1:32.64 | 0 | 0 |
| 990 | HeliosMagi | 1:32.64 | 0 | 0 |
| 992 | wang tulong | 1:32.66 | 0 | 0 |
| 993 | British Badger | 1:32.68 | 0 | 0 |
| 994 | Kale Myself | 1:32.69 | 0 | 0 |
| 995 | Lud | Forest | 1:32.72 | 0 | 0 |
| 996 | Wildclaw | 1:32.74 | 0 | 0 |
| 997 | Melty | 1:32.75 | 0 | 0 |
| 998 | CloudBirb | 1:32.76 | 0 | 0 |
| 999 | Rycka | 1:32.79 | 0 | 0 |
| 999 | ShadowWolf | 1:32.79 | 0 | 0 |
| 999 | Arresson | 1:32.79 | 0 | 0 |
| 1,002 | Dragonite11325 | 1:32.80 | 0 | 0 |
| 1,003 | Swizy | 1:32.82 | 0 | 0 |
| 1,004 | 25 минут кайфа | 1:32.84 | 0 | 0 |
| 1,005 | Duke Swampy | 1:32.87 | 0 | 0 |
| 1,006 | Nephuxs | 1:32.89 | 0 | 0 |
| 1,006 | MrTi | 1:32.89 | 0 | 0 |
| 1,008 | Shyylock | 1:32.90 | 0 | 0 |
| 1,009 | 口沃虎牙 米托拉塔 | 1:32.91 | 0 | 0 |
| 1,010 | Fat Boy Kyle | 1:32.97 | 0 | 0 |
| 1,011 | Mystic Fool | 1:33.00 | 0 | 0 |
| 1,011 | Jun | 1:33.00 | 0 | 0 |
| 1,013 | NagaKnight | 1:33.01 | 0 | 0 |
| 1,014 | Autonomus | 1:33.02 | 0 | 0 |
| 1,015 | Twinbee | 1:33.07 | 0 | 0 |
| 1,016 | Turtelus_Grande | 1:33.08 | 0 | 0 |
| 1,017 | Shrimp Burrito | 1:33.13 | 0 | 0 |
| 1,018 | Чаечек ☂ | 1:33.14 | 0 | 0 |
| 1,019 | yeehaw | 1:33.15 | 0 | 0 |
| 1,020 | absolute unit | 1:33.18 | 0 | 0 |
| 1,021 | Its_Just_Dave | 1:33.19 | 0 | 0 |
| 1,021 | RadLad25X | 1:33.19 | 0 | 0 |
| 1,023 | catbotz | 1:33.20 | 0 | 0 |
| 1,024 | Dan43 | 1:33.21 | 0 | 0 |
| 1,025 | Lux | 1:33.25 | 0 | 0 |
| 1,026 | SneakyBombsuit | 1:33.26 | 0 | 0 |
| 1,027 | >:D | 1:33.27 | 0 | 0 |
| 1,028 | Graviterium | 1:33.28 | 0 | 0 |
| 1,029 | IggyMaid | 1:33.30 | 0 | 0 |
| 1,030 | Cranberry Coca Cola | 1:33.33 | 0 | 0 |
| 1,031 | BumbleFunkMcGee | 1:33.34 | 0 | 0 |
| 1,032 | Joshi | 1:33.37 | 0 | 0 |
| 1,033 | puter #MTWD | 1:33.38 | 0 | 0 |
| 1,034 | Toup | 1:33.41 | 0 | 0 |
| 1,035 | Señor Bob | 1:33.44 | 0 | 0 |
| 1,036 | Umbrasbane | 1:33.49 | 0 | 0 |
| 1,037 | Coldfang | 1:33.50 | 0 | 0 |
| 1,037 | Why not? | 1:33.50 | 0 | 0 |
| 1,037 | Crubo | 1:33.50 | 0 | 0 |
| 1,037 | Brutus666 | 1:33.50 | 0 | 0 |
| 1,041 | Vinnie Scumbolli | 1:33.55 | 0 | 0 |
| 1,042 | Snowglider | 1:33.56 | 0 | 0 |
| 1,042 | A Very Angy Opossum | 1:33.56 | 0 | 0 |
| 1,044 | Tzav | 1:33.57 | 0 | 0 |
| 1,045 | mlk | 1:33.59 | 0 | 0 |
| 1,046 | Lag1ttaja | 1:33.61 | 0 | 0 |
| 1,047 | sWilder9 | 1:33.63 | 0 | 0 |
| 1,048 | sendthefish | 1:33.64 | 0 | 0 |
| 1,049 | 4onen | 1:33.69 | 0 | 0 |
| 1,050 | Captain Kurt | 1:33.76 | 0 | 0 |
| 1,050 | Draligøn | 1:33.76 | 0 | 0 |
| 1,052 | MeatyScreams | 1:33.80 | 0 | 0 |
| 1,052 | CheesyCherd | 1:33.80 | 0 | 0 |
| 1,054 | Mr. Doon | 1:33.83 | 0 | 0 |
| 1,055 | Tselkie | 1:33.84 | 0 | 0 |
| 1,056 | Siddey10 | 1:33.90 | 0 | 0 |
| 1,057 | SimuRg | 1:33.91 | 0 | 0 |
| 1,057 | Leon | 1:33.91 | 0 | 0 |
| 1,059 | Somehow, the Chicken | 1:33.92 | 0 | 0 |
| 1,060 | Hijacker02 | 1:33.93 | 0 | 0 |
| 1,061 | VAANCube | 1:33.95 | 0 | 0 |
| 1,062 | washed | 1:33.98 | 0 | 0 |
| 1,063 | TheRegalKing | 1:33.99 | 0 | 0 |
| 1,064 | NeedABetterName | 1:34.02 | 0 | 0 |
| 1,065 | Defect | 1:34.04 | 0 | 0 |
| 1,066 | ShotgunReptile | 1:34.05 | 0 | 0 |
| 1,067 | HJQLF | 1:34.06 | 0 | 0 |
| 1,067 | V | 1:34.06 | 0 | 0 |
| 1,069 | Double Trouble Rubble Bubble | 1:34.07 | 0 | 0 |
| 1,069 | shady3000 | 1:34.07 | 0 | 0 |
| 1,069 | NikoDaNeko | 1:34.07 | 0 | 0 |
| 1,072 | Droconean | 1:34.08 | 0 | 0 |
| 1,072 | Mace | 1:34.08 | 0 | 0 |
| 1,074 | Herbstein | 1:34.16 | 0 | 0 |
| 1,074 | Lampshaede | 1:34.16 | 0 | 0 |
| 1,076 | Lethologica7 | 1:34.18 | 0 | 0 |
| 1,076 | Seschbee | 1:34.18 | 0 | 0 |
| 1,078 | sacrafish | 1:34.21 | 0 | 0 |
| 1,078 | ItsMarcus | 1:34.21 | 0 | 0 |
| 1,080 | cyace | 1:34.24 | 0 | 0 |
| 1,081 | Pureception | 1:34.31 | 0 | 0 |
| 1,081 | Garfield2611 | 1:34.31 | 0 | 0 |
| 1,083 | ThatOneFastGuy | 1:34.39 | 0 | 0 |
| 1,084 | Gnarrang | 1:34.40 | 0 | 0 |
| 1,084 | Pinapl | 1:34.40 | 0 | 0 |
| 1,084 | ♿ | 1:34.40 | 0 | 0 |
| 1,087 | Thoughtless | 1:34.42 | 0 | 0 |
| 1,088 | Duke333 | 1:34.43 | 0 | 0 |
| 1,089 | Greywolfe | 1:34.46 | 0 | 0 |
| 1,090 | Striker25 | 1:34.47 | 0 | 0 |
| 1,091 | sour | 1:34.51 | 0 | 0 |
| 1,092 | ahtnos | 1:34.54 | 0 | 0 |
| 1,093 | Kalimbato | 1:34.58 | 0 | 0 |
| 1,094 | A Live Studio Audience | 1:34.60 | 0 | 0 |
| 1,095 | Captain Frosty | 1:34.61 | 0 | 0 |
| 1,096 | Skooma | 1:34.64 | 0 | 0 |
| 1,097 | artyom.praim | 1:34.65 | 0 | 0 |
| 1,098 | Reeeeee | 1:34.69 | 0 | 0 |
| 1,098 | Brandino | 1:34.69 | 0 | 0 |
| 1,100 | Interpunct | 1:34.71 | 0 | 0 |
| 1,100 | Myogi Night | 1:34.71 | 0 | 0 |
| 1,102 | morningbird | 1:34.73 | 0 | 0 |
| 1,103 | Porcozo | 1:34.75 | 0 | 0 |
| 1,103 | ibimsniki | 1:34.75 | 0 | 0 |
| 1,105 | Limola | 1:34.77 | 0 | 0 |
| 1,106 | DarthTaco | 1:34.78 | 0 | 0 |
| 1,107 | TomMyyY | 1:34.82 | 0 | 0 |
| 1,107 | Minecraft27Xbox | 1:34.82 | 0 | 0 |
| 1,109 | PhantomKnightly | 1:34.83 | 0 | 0 |
| 1,109 | Ae1oURed | 1:34.83 | 0 | 0 |
| 1,111 | Username | 1:34.84 | 0 | 0 |
| 1,112 | iamelementalsword | 1:34.86 | 0 | 0 |
| 1,113 | O_O | 1:34.87 | 0 | 0 |
| 1,114 | [deleted] | 1:34.88 | 0 | 0 |
| 1,115 | Kumi | 1:34.89 | 0 | 0 |
| 1,116 | J3anhammer | 1:34.90 | 0 | 0 |
| 1,117 | Zilby | 1:34.91 | 0 | 0 |
| 1,118 | Filounderstover | 1:34.92 | 0 | 0 |
| 1,118 | VI_fizz | 1:34.92 | 0 | 0 |
| 1,120 | TheDoomslayer | 1:34.93 | 0 | 0 |
| 1,121 | maple | 1:34.97 | 0 | 0 |
| 1,122 | Prof. Purble | 1:34.98 | 0 | 0 |
| 1,123 | Samn | 1:34.99 | 0 | 0 |
| 1,123 | Epowerj | 1:34.99 | 0 | 0 |
| 1,125 | siafa | 1:35.01 | 0 | 0 |
| 1,126 | Stampede | 1:35.03 | 0 | 0 |
| 1,127 | OmenzHD | 1:35.04 | 0 | 0 |
| 1,128 | Kivvi | 1:35.06 | 0 | 0 |
| 1,129 | Sgt_Snowcone | 1:35.09 | 0 | 0 |
| 1,130 | iBetYouDo | 1:35.11 | 0 | 0 |
| 1,131 | The Flickering Remnant Effigy | 1:35.13 | 0 | 0 |
| 1,131 | Shadowfax | 1:35.13 | 0 | 0 |
| 1,133 | Sharkhon | 1:35.14 | 0 | 0 |
| 1,134 | Simon Evo | 1:35.16 | 0 | 0 |
| 1,135 | Crimson Blood | 1:35.19 | 0 | 0 |
| 1,135 | RedL | 1:35.19 | 0 | 0 |
| 1,135 | justpeace.jp | 1:35.19 | 0 | 0 |
| 1,138 | Weird Pumpkin | 1:35.24 | 0 | 0 |
| 1,139 | Rain | 1:35.26 | 0 | 0 |
| 1,140 | SX64 | 1:35.28 | 0 | 0 |
| 1,141 | Razzbazz | 1:35.30 | 0 | 0 |
| 1,142 | G5TNo2486 | 1:35.31 | 0 | 0 |
| 1,143 | Hudbus | 1:35.35 | 0 | 0 |
| 1,144 | Lightbird | 1:35.36 | 0 | 0 |
| 1,144 | Conrad the Magnificent | 1:35.36 | 0 | 0 |
| 1,144 | Ion | 1:35.36 | 0 | 0 |
| 1,144 | Gdj 24 | 1:35.36 | 0 | 0 |
| 1,148 | nullXer0 | 1:35.38 | 0 | 0 |
| 1,148 | Man Mothma | 1:35.38 | 0 | 0 |
| 1,150 | Inzarin | 1:35.41 | 0 | 0 |
| 1,151 | gfreezz | 1:35.42 | 0 | 0 |
| 1,152 | Viking_king | 1:35.44 | 0 | 0 |
| 1,153 | davidd | 1:35.45 | 0 | 0 |
| 1,154 | Hightree | 1:35.46 | 0 | 0 |
| 1,154 | Amaichan | 1:35.46 | 0 | 0 |
| 1,156 | Periosa | 1:35.48 | 0 | 0 |
| 1,157 | Turnabout Grag | 1:35.50 | 0 | 0 |
| 1,158 | beans | 1:35.52 | 0 | 0 |
| 1,158 | The Stig | 1:35.52 | 0 | 0 |
| 1,160 | Rybot | 1:35.54 | 0 | 0 |
| 1,161 | DeathmasterDAN | 1:35.56 | 0 | 0 |
| 1,161 | Sharkbait | 1:35.56 | 0 | 0 |
| 1,161 | gp | 1:35.56 | 0 | 0 |
| 1,161 | Zyon | 1:35.56 | 0 | 0 |
| 1,165 | WIZZAID | 1:35.57 | 0 | 0 |
| 1,165 | Neenis | 1:35.57 | 0 | 0 |
| 1,167 | Governor Tekagi | 1:35.59 | 0 | 0 |
| 1,168 | moguli | 1:35.62 | 0 | 0 |
| 1,168 | StephanoLight | 1:35.62 | 0 | 0 |
| 1,170 | Whisky_Mike | 1:35.63 | 0 | 0 |
| 1,170 | Yipp | 1:35.63 | 0 | 0 |
| 1,172 | DrownedToSleep | 1:35.66 | 0 | 0 |
| 1,172 | Sterbin | 1:35.66 | 0 | 0 |
| 1,172 | SirDan | 1:35.66 | 0 | 0 |
| 1,175 | Polygonalfish | 1:35.68 | 0 | 0 |
| 1,176 | Sen | 1:35.72 | 0 | 0 |
| 1,176 | Salty Mailman | 1:35.72 | 0 | 0 |
| 1,178 | Moro | 1:35.73 | 0 | 0 |
| 1,179 | PatTheHyruler | 1:35.78 | 0 | 0 |
| 1,180 | Sugoi-desu (⊙‿⊙✿) | 1:35.79 | 0 | 0 |
| 1,180 | PathToV1ctory | 1:35.79 | 0 | 0 |
| 1,180 | Dorphan | 1:35.79 | 0 | 0 |
| 1,183 | ̶n̶i̶c̶k̶ | 1:35.80 | 0 | 0 |
| 1,184 | Sephyrias | 1:35.83 | 0 | 0 |
| 1,185 | Blacktech | 1:35.87 | 0 | 0 |
| 1,185 | Maugan Ra | 1:35.87 | 0 | 0 |
| 1,187 | Shodan | 1:35.89 | 0 | 0 |
| 1,188 | Breno_SO | 1:35.90 | 0 | 0 |
| 1,189 | Morriaty | 1:35.93 | 0 | 0 |
| 1,190 | Ayytbom | 1:35.95 | 0 | 0 |
| 1,191 | krizithy | 1:35.96 | 0 | 0 |
| 1,192 | Kyanite | 1:35.97 | 0 | 0 |
| 1,193 | ZW98 | 1:35.98 | 0 | 0 |
| 1,194 | JJ | 1:36.00 | 0 | 0 |
| 1,195 | Luna | 1:36.03 | 0 | 0 |
| 1,195 | Keflon | 1:36.03 | 0 | 0 |
| 1,197 | ushizi | 1:36.05 | 0 | 0 |
| 1,198 | BerAlto | 1:36.08 | 0 | 0 |
| 1,199 | AshenSingularity | 1:36.09 | 0 | 0 |
| 1,200 | Jack | 1:36.10 | 0 | 0 |
| 1,201 | Frankly | 1:36.11 | 0 | 0 |
| 1,202 | Zinsk130 [M4H] | 1:36.18 | 0 | 0 |
| 1,203 | Drift.exe | 1:36.19 | 0 | 0 |
| 1,204 | MR.Tyde | 1:36.20 | 0 | 0 |
| 1,205 | kal3cy | 1:36.24 | 0 | 0 |
| 1,206 | FlightOfGrey | 1:36.25 | 0 | 0 |
| 1,206 | Verity | 1:36.25 | 0 | 0 |
| 1,206 | Faisal | 1:36.25 | 0 | 0 |
| 1,206 | russ117 | 1:36.25 | 0 | 0 |
| 1,210 | Awesomedan | 1:36.28 | 0 | 0 |
| 1,211 | Beets by Farmer Dre | 1:36.29 | 0 | 0 |
| 1,211 | Poteng | 1:36.29 | 0 | 0 |
| 1,211 | Daxival | 1:36.29 | 0 | 0 |
| 1,214 | Simon | 1:36.30 | 0 | 0 |
| 1,215 | Nagrom | 1:36.31 | 0 | 0 |
| 1,216 | Mythic | 1:36.32 | 0 | 0 |
| 1,216 | R0gu3Sentin3l | 1:36.32 | 0 | 0 |
| 1,218 | DrPiggler | 1:36.36 | 0 | 0 |
| 1,218 | NePurple | 1:36.36 | 0 | 0 |
| 1,220 | Racheecha | 1:36.37 | 0 | 0 |
| 1,221 | Evil Hagrid | 1:36.38 | 0 | 0 |
| 1,222 | BuzzM4H | 1:36.39 | 0 | 0 |
| 1,223 | sylvan | 1:36.41 | 0 | 0 |
| 1,224 | Nanohm The Protogen | 1:36.42 | 0 | 0 |
| 1,225 | Quantum Glitch | 1:36.43 | 0 | 0 |
| 1,226 | Orion | 1:36.44 | 0 | 0 |
| 1,226 | Anonymous | 1:36.44 | 0 | 0 |
| 1,228 | Puzzleless | 1:36.45 | 0 | 0 |
| 1,229 | Dusty | 1:36.49 | 0 | 0 |
| 1,230 | Miller | 1:36.50 | 0 | 0 |
| 1,230 | fxskill | 1:36.50 | 0 | 0 |
| 1,232 | Zuriel | 1:36.52 | 0 | 0 |
| 1,233 | Thomas The Thug Train | 1:36.55 | 0 | 0 |
| 1,234 | Crumble_Z | 1:36.56 | 0 | 0 |
| 1,234 | Larslol140 | 1:36.56 | 0 | 0 |
| 1,236 | GrunzJr | 1:36.59 | 0 | 0 |
| 1,237 | FlatoutDude | 1:36.60 | 0 | 0 |
| 1,237 | Kilo | 1:36.60 | 0 | 0 |
| 1,239 | WorkingChickenMH | 1:36.61 | 0 | 0 |
| 1,239 | qwqwͪeͨrͭertyty | 1:36.61 | 0 | 0 |
| 1,241 | TheEPROM9 LaTeX | 1:36.62 | 0 | 0 |
| 1,241 | cyan | 1:36.62 | 0 | 0 |
| 1,241 | Gooby plis | 1:36.62 | 0 | 0 |
| 1,244 | THE FINAL LOSER | 1:36.65 | 0 | 0 |
| 1,244 | replikaeyes | 1:36.65 | 0 | 0 |
| 1,246 | Frederik Thundercunt | 1:36.67 | 0 | 0 |
| 1,247 | Chiffer | 1:36.68 | 0 | 0 |
| 1,247 | huettner94 | 1:36.68 | 0 | 0 |
| 1,247 | |FOS|. Aramon | 1:36.68 | 0 | 0 |
| 1,250 | Boomer McGeezer | 1:36.69 | 0 | 0 |
| 1,251 | Celnius | 1:36.73 | 0 | 0 |
| 1,252 | jetknife | 1:36.74 | 0 | 0 |
| 1,253 | I SMASH ROCKS | 1:36.76 | 0 | 0 |
| 1,254 | PINGAS | 1:36.77 | 0 | 0 |
| 1,254 | MSc. Swag Bunny 🐇 | 1:36.77 | 0 | 0 |
| 1,256 | GenericTrash™ | 1:36.82 | 0 | 0 |
| 1,257 | Deni | 1:36.85 | 0 | 0 |
| 1,258 | CarMcF | 1:36.88 | 0 | 0 |
| 1,258 | NeonGI | 1:36.88 | 0 | 0 |
| 1,260 | hmm... | 1:36.91 | 0 | 0 |
| 1,261 | REHERC | 1:36.97 | 0 | 0 |
| 1,261 | Bocco | 1:36.97 | 0 | 0 |
| 1,263 | desc | 1:36.98 | 0 | 0 |
| 1,264 | ThunderTHR | 1:37.00 | 0 | 0 |
| 1,265 | Datacrab | 1:37.01 | 0 | 0 |
| 1,266 | Dyltra | 1:37.02 | 0 | 0 |
| 1,267 | Nevorist | 1:37.04 | 0 | 0 |
| 1,267 | RayanSub | 1:37.04 | 0 | 0 |
| 1,267 | Lupeling | 1:37.04 | 0 | 0 |
| 1,270 | das | 1:37.05 | 0 | 0 |
| 1,271 | playedmin16 | 1:37.09 | 0 | 0 |
| 1,272 | Numbfeet | 1:37.10 | 0 | 0 |
| 1,272 | IronColon | 1:37.10 | 0 | 0 |
| 1,274 | ultravirus | 1:37.13 | 0 | 0 |
| 1,274 | Ptilopsis | 1:37.13 | 0 | 0 |
| 1,276 | SuperDulli | 1:37.14 | 0 | 0 |
| 1,277 | bread | 1:37.15 | 0 | 0 |
| 1,277 | Leviathos | 1:37.15 | 0 | 0 |
| 1,279 | Wolfy Neah | 1:37.18 | 0 | 0 |
| 1,280 | Greer Agrendale | 1:37.20 | 0 | 0 |
| 1,280 | wikkyd | 1:37.20 | 0 | 0 |
| 1,282 | SkidrowPissWizard | 1:37.21 | 0 | 0 |
| 1,282 | Hômɓer | 1:37.21 | 0 | 0 |
| 1,282 | narcrab | 1:37.21 | 0 | 0 |
| 1,285 | AntiGravPilot | 1:37.24 | 0 | 0 |
| 1,285 | Echo 419 | 1:37.24 | 0 | 0 |
| 1,287 | MOCOCHINCHOL | 1:37.31 | 0 | 0 |
| 1,288 | Dark_Achon | 1:37.33 | 0 | 0 |
| 1,289 | Potted Mushroom | 1:37.34 | 0 | 0 |
| 1,289 | pox | 1:37.34 | 0 | 0 |
| 1,291 | Yarimi | 1:37.36 | 0 | 0 |
| 1,291 | MR.CH33ZZY 63 | 1:37.36 | 0 | 0 |
| 1,293 | delfiler | 1:37.41 | 0 | 0 |
| 1,294 | Remanner | 1:37.45 | 0 | 0 |
| 1,294 | Mac_SirBlickith | 1:37.45 | 0 | 0 |
| 1,296 | TESAK | 1:37.50 | 0 | 0 |
| 1,297 | Mr. Bird | 1:37.54 | 0 | 0 |
| 1,297 | Amgel | 1:37.54 | 0 | 0 |
| 1,299 | Fable | 1:37.55 | 0 | 0 |
| 1,300 | Coconut | 1:37.56 | 0 | 0 |
| 1,301 | Silverlost | 1:37.57 | 0 | 0 |
| 1,301 | Nova_Cat | 1:37.57 | 0 | 0 |
| 1,303 | Shuya | 1:37.58 | 0 | 0 |
| 1,304 | Gomorrha | 1:37.59 | 0 | 0 |
| 1,304 | [FR] konogan | 1:37.59 | 0 | 0 |
| 1,306 | Sébastien Lecornu II | 1:37.63 | 0 | 0 |
| 1,307 | OnlyAfro | 1:37.66 | 0 | 0 |
| 1,308 | Nofunzone | 1:37.67 | 0 | 0 |
| 1,309 | WillyInTheWild | 1:37.68 | 0 | 0 |
| 1,310 | Tim | 1:37.70 | 0 | 0 |
| 1,311 | McLarenTim | 1:37.71 | 0 | 0 |
| 1,312 | ToonFan2106 | 1:37.74 | 0 | 0 |
| 1,313 | Dany W. | 1:37.75 | 0 | 0 |
| 1,314 | Grav | 1:37.77 | 0 | 0 |
| 1,314 | Opliz jejetriton | 1:37.77 | 0 | 0 |
| 1,316 | Atamii | 1:37.78 | 0 | 0 |
| 1,317 | Anerix (Paradox) Cormin Quanadol | 1:37.79 | 0 | 0 |
| 1,318 | MystykZ | 1:37.83 | 0 | 0 |
| 1,318 | Eleven27 | 1:37.83 | 0 | 0 |
| 1,320 | xander | 1:37.84 | 0 | 0 |
| 1,321 | Rhamley | 1:37.85 | 0 | 0 |
| 1,322 | Spur | 1:37.88 | 0 | 0 |
| 1,323 | hoppits | 1:37.91 | 0 | 0 |
| 1,324 | perspective. | 1:37.96 | 0 | 0 |
| 1,324 | Derezium | 1:37.96 | 0 | 0 |
| 1,324 | ThanksForNothing | 1:37.96 | 0 | 0 |
| 1,327 | Sogg Toast | 1:37.98 | 0 | 0 |
| 1,328 | Naikel [FR] | 1:37.99 | 0 | 0 |
| 1,329 | DigitalEden | 1:38.03 | 0 | 0 |
| 1,330 | Copium Canister | 1:38.06 | 0 | 0 |
| 1,331 | tultako | 1:38.07 | 0 | 0 |
| 1,332 | Bread | 1:38.08 | 0 | 0 |
| 1,333 | Voltaic | 1:38.10 | 0 | 0 |
| 1,334 | StoicSirius | 1:38.11 | 0 | 0 |
| 1,335 | TheR8R | 1:38.13 | 0 | 0 |
| 1,335 | Zerhlio | 1:38.13 | 0 | 0 |
| 1,337 | Finorza | 1:38.14 | 0 | 0 |
| 1,338 | Amarae | 1:38.16 | 0 | 0 |
| 1,339 | Captain Robbie | 1:38.17 | 0 | 0 |
| 1,339 | Digiten | 1:38.17 | 0 | 0 |
| 1,341 | crimes.against.art | 1:38.18 | 0 | 0 |
| 1,342 | UncleJibJab | 1:38.19 | 0 | 0 |
| 1,342 | Drahcir Srewop | 1:38.19 | 0 | 0 |
| 1,344 | Darth Sand | 1:38.24 | 0 | 0 |
| 1,344 | SauronGamer | 1:38.24 | 0 | 0 |
| 1,344 | ZaptorZap | 1:38.24 | 0 | 0 |
| 1,347 | Leon | 1:38.25 | 0 | 0 |
| 1,348 | Valankor | 1:38.26 | 0 | 0 |
| 1,348 | PartTimeCanadian | 1:38.26 | 0 | 0 |
| 1,348 | TristanZet | 1:38.26 | 0 | 0 |
| 1,351 | Vulduv | 1:38.27 | 0 | 0 |
| 1,352 | -≺Zinc≻- | 1:38.28 | 0 | 0 |
| 1,353 | PPTREXFFT | 1:38.29 | 0 | 0 |
| 1,354 | BIKAKIN_justintv | 1:38.33 | 0 | 0 |
| 1,355 | Seriousedy | 1:38.35 | 0 | 0 |
| 1,356 | Otano | 1:38.37 | 0 | 0 |
| 1,356 | Star Scuffle | 1:38.37 | 0 | 0 |
| 1,358 | El classico | 1:38.39 | 0 | 0 |
| 1,359 | DeV (.づ◡﹏◡)づ | 1:38.47 | 0 | 0 |
| 1,360 | Camera | 1:38.48 | 0 | 0 |
| 1,361 | Cosmic0de | 1:38.51 | 0 | 0 |
| 1,362 | Splatyキャティ | 1:38.52 | 0 | 0 |
| 1,363 | Crouching Helps | 1:38.53 | 0 | 0 |
| 1,363 | Phillipus | 1:38.53 | 0 | 0 |
| 1,365 | Pasimero | 1:38.58 | 0 | 0 |
| 1,366 | RobloxUwU | 1:38.62 | 0 | 0 |
| 1,367 | peep1234 | 1:38.64 | 0 | 0 |
| 1,368 | Pixie | 1:38.66 | 0 | 0 |
| 1,368 | Ventus | 1:38.66 | 0 | 0 |
| 1,370 | Amonera | 1:38.67 | 0 | 0 |
| 1,371 | Kowsky | 1:38.70 | 0 | 0 |
| 1,371 | Buster | 1:38.70 | 0 | 0 |
| 1,373 | it's not easy being green | 1:38.71 | 0 | 0 |
| 1,374 | Nu_case | 1:38.72 | 0 | 0 |
| 1,375 | Redcost | 1:38.73 | 0 | 0 |
| 1,376 | Kagenza | 1:38.74 | 0 | 0 |
| 1,377 | Guterson | 1:38.75 | 0 | 0 |
| 1,378 | Comrade St. Nikolai | 1:38.76 | 0 | 0 |
| 1,378 | B'neppe | 1:38.76 | 0 | 0 |
| 1,378 | Shrapnel Blatner | 1:38.76 | 0 | 0 |
| 1,381 | FlantasticMad | 1:38.78 | 0 | 0 |
| 1,382 | errant | 1:38.80 | 0 | 0 |
| 1,383 | hcg106 | 1:38.84 | 0 | 0 |
| 1,384 | Grey Fenrir | 1:38.85 | 0 | 0 |
| 1,384 | niiiiigatron | 1:38.85 | 0 | 0 |
| 1,386 | Tenth | 1:38.87 | 0 | 0 |
| 1,386 | Felizius | 1:38.87 | 0 | 0 |
| 1,388 | Nat$u | 1:38.88 | 0 | 0 |
| 1,388 | Redx | 1:38.88 | 0 | 0 |
| 1,390 | Própolis | 1:38.92 | 0 | 0 |
| 1,391 | 46464 | 1:38.93 | 0 | 0 |
| 1,391 | The_Paradoxon99 | 1:38.93 | 0 | 0 |
| 1,393 | RoedeOurm | 1:38.97 | 0 | 0 |
| 1,393 | [RIOT]ThePlatinTiger | 1:38.97 | 0 | 0 |
| 1,393 | ImmortalSausages | 1:38.97 | 0 | 0 |
| 1,396 | Chaos Titan | 1:39.00 | 0 | 0 |
| 1,396 | ( 3 ) | 1:39.00 | 0 | 0 |
| 1,398 | Icecube11 | 1:39.06 | 0 | 0 |
| 1,399 | damon1245 | 1:39.07 | 0 | 0 |
| 1,400 | Rolfforever | 1:39.08 | 0 | 0 |
| 1,400 | Kriscos | 1:39.08 | 0 | 0 |
| 1,402 | Frey | 1:39.09 | 0 | 0 |
| 1,402 | Berndbob Totkopf | 1:39.09 | 0 | 0 |
| 1,404 | Benji | 1:39.11 | 0 | 0 |
| 1,405 | gusforester | 1:39.15 | 0 | 0 |
| 1,406 | Kuray | 1:39.17 | 0 | 0 |
| 1,407 | Blanket Man | 1:39.21 | 0 | 0 |
| 1,408 | Sexy Buns | 1:39.22 | 0 | 0 |
| 1,408 | Natr | 1:39.22 | 0 | 0 |
| 1,410 | LunarRay | 1:39.25 | 0 | 0 |
| 1,411 | Winters | 1:39.27 | 0 | 0 |
| 1,411 | [] | 1:39.27 | 0 | 0 |
| 1,413 | ♡ | 1:39.28 | 0 | 0 |
| 1,414 | crophlin | 1:39.29 | 0 | 0 |
| 1,414 | Madlax | 1:39.29 | 0 | 0 |
| 1,414 | Satin | 1:39.29 | 0 | 0 |
| 1,417 | Bijan | 1:39.30 | 0 | 0 |
| 1,418 | Shjohn | 1:39.31 | 0 | 0 |
| 1,418 | Pixdigit | 1:39.31 | 0 | 0 |
| 1,420 | TRJ-VoRoN | 1:39.32 | 0 | 0 |
| 1,421 | bloodorangesunrise | 1:39.37 | 0 | 0 |
| 1,422 | NaterrTheBull | 1:39.41 | 0 | 0 |
| 1,422 | SpicySpaceSnake | 1:39.41 | 0 | 0 |
| 1,424 | Beskar | 1:39.42 | 0 | 0 |
| 1,425 | Ayato | 1:39.44 | 0 | 0 |
| 1,426 | Monsi | 1:39.47 | 0 | 0 |
| 1,427 | MAKE YOUR MCCHOICE | 1:39.49 | 0 | 0 |
| 1,428 | [deleted] | 1:39.50 | 0 | 0 |
| 1,429 | RagingPoet | 1:39.53 | 0 | 0 |
| 1,430 | IanRosk | 1:39.57 | 0 | 0 |
| 1,430 | D0HERRITT | 1:39.57 | 0 | 0 |
| 1,432 | Bitsumishi Stace Spar | 1:39.61 | 0 | 0 |
| 1,432 | Julianos | 1:39.61 | 0 | 0 |
| 1,434 | ALWAYSWANNADIE | 1:39.63 | 0 | 0 |
| 1,434 | Nenu | 1:39.63 | 0 | 0 |
| 1,436 | Boxmania | 1:39.66 | 0 | 0 |
| 1,437 | Pete | 1:39.73 | 0 | 0 |
| 1,438 | Killzone271 | 1:39.74 | 0 | 0 |
| 1,438 | Misc23 | 1:39.74 | 0 | 0 |
| 1,440 | misami | 1:39.76 | 0 | 0 |
| 1,441 | Trishphyre Paradox Developer | 1:39.77 | 0 | 0 |
| 1,442 | Undead | 1:39.79 | 0 | 0 |
| 1,443 | Tibbs | 1:39.80 | 0 | 0 |
| 1,444 | Black02 | 1:39.81 | 0 | 0 |
| 1,445 | ado line | 1:39.86 | 0 | 0 |
| 1,446 | Kleimann | 1:39.90 | 0 | 0 |
| 1,446 | Dahnyl | 1:39.90 | 0 | 0 |
| 1,448 | ZeeBee | 1:39.92 | 0 | 0 |
| 1,449 | KMills | 1:39.96 | 0 | 0 |
| 1,450 | Hiddelgreyk | 1:39.97 | 0 | 0 |
| 1,451 | Nuigurumi | 1:39.98 | 0 | 0 |
| 1,452 | hunned | 1:39.99 | 0 | 0 |
| 1,453 | sweet like pepsi | 1:40.00 | 0 | 0 |
| 1,454 | Eagl3 | 1:40.04 | 0 | 0 |
| 1,455 | NostalgicRage | 1:40.05 | 0 | 0 |
| 1,456 | Spoiler Alert | 1:40.06 | 0 | 0 |
| 1,457 | Mr. K | 1:40.09 | 0 | 0 |
| 1,458 | The 2000 Minnesota Vikings | 1:40.13 | 0 | 0 |
| 1,459 | Carlos | 1:40.18 | 0 | 0 |
| 1,460 | MajorGeneralDespair | 1:40.19 | 0 | 0 |
| 1,461 | btyrellb125 | 1:40.20 | 0 | 0 |
| 1,462 | Skeleton | 1:40.23 | 0 | 0 |
| 1,463 | CITIZEN_2O48 | 1:40.25 | 0 | 0 |
| 1,464 | Kasgun Ƹ̵̡Ӝ̵̨̄Ʒ | 1:40.28 | 0 | 0 |
| 1,465 | maemento mori | 1:40.29 | 0 | 0 |
| 1,466 | the heavenly homie | 1:40.30 | 0 | 0 |
| 1,466 | Najred | 1:40.30 | 0 | 0 |
| 1,468 | Enigmatic Flood | 1:40.31 | 0 | 0 |
| 1,468 | SC000TER | 1:40.31 | 0 | 0 |
| 1,470 | Big_J | 1:40.33 | 0 | 0 |
| 1,471 | LissomChunk | 1:40.34 | 0 | 0 |
| 1,471 | Requiem of Souls | 1:40.34 | 0 | 0 |
| 1,473 | Pocatiwi | 1:40.35 | 0 | 0 |
| 1,474 | Bobeye | 1:40.38 | 0 | 0 |
| 1,475 | Dracatty | 1:40.40 | 0 | 0 |
| 1,475 | The Creeping Geek | 1:40.40 | 0 | 0 |
| 1,477 | SukairenTTV | 1:40.48 | 0 | 0 |
| 1,478 | Wilex | 1:40.49 | 0 | 0 |
| 1,479 | Ape Tea | 1:40.51 | 0 | 0 |
| 1,480 | Distance306 | 1:40.52 | 0 | 0 |
| 1,481 | 54mm7 | 1:40.53 | 0 | 0 |
| 1,482 | Achiro | 1:40.57 | 0 | 0 |
| 1,483 | Шоколадка:) | 1:40.58 | 0 | 0 |
| 1,484 | Samadamadingdong | 1:40.59 | 0 | 0 |
| 1,485 | Arkemn | 1:40.65 | 0 | 0 |
| 1,485 | Stopit | 1:40.65 | 0 | 0 |
| 1,487 | Marco | 1:40.66 | 0 | 0 |
| 1,488 | Luckylock | 1:40.69 | 0 | 0 |
| 1,488 | D0m1n1©™ | 1:40.69 | 0 | 0 |
| 1,490 | CrazyPass | 1:40.70 | 0 | 0 |
| 1,491 | warmainiac | 1:40.71 | 0 | 0 |
| 1,492 | Mr. Beefy | 1:40.72 | 0 | 0 |
| 1,493 | TheCarniv0rE | 1:40.76 | 0 | 0 |
| 1,494 | spires | 1:40.77 | 0 | 0 |
| 1,495 | ImNotFine | 1:40.84 | 0 | 0 |
| 1,496 | Septeri | 1:40.87 | 0 | 0 |
| 1,497 | Apash | 1:40.89 | 0 | 0 |
| 1,498 | Booben | 1:40.91 | 0 | 0 |
| 1,499 | -EXP | 1:40.93 | 0 | 0 |
| 1,500 | Lady Yuna Yosha | 1:41.07 | 0 | 0 |
| 1,501 | Interfector |XTF| | 1:41.11 | 0 | 0 |
| 1,502 | Bear | 1:41.12 | 0 | 0 |
| 1,503 | HoldenC | 1:41.17 | 0 | 0 |
| 1,504 | [T-PP] PhiniksPlays | 1:41.20 | 0 | 0 |
| 1,505 | InstinctGravier le Laitier | 1:41.22 | 0 | 0 |
| 1,506 | Livie | 1:41.24 | 0 | 0 |
| 1,507 | Lupi | 1:41.25 | 0 | 0 |
| 1,508 | DragonPixels | 1:41.27 | 0 | 0 |
| 1,509 | Gauss-Striker | 1:41.30 | 0 | 0 |
| 1,510 | DizzyP | 1:41.32 | 0 | 0 |
| 1,511 | Salvage | 1:41.33 | 0 | 0 |
| 1,512 | G9 | 1:41.34 | 0 | 0 |
| 1,513 | Apocalyptic Bunny | 1:41.41 | 0 | 0 |
| 1,514 | Tacct | 1:41.45 | 0 | 0 |
| 1,515 | Ame | 1:41.47 | 0 | 0 |
| 1,515 | Chase Me | 1:41.47 | 0 | 0 |
| 1,517 | Frosthief | 1:41.48 | 0 | 0 |
| 1,518 | sbeve | 1:41.49 | 0 | 0 |
| 1,518 | Shai | 1:41.49 | 0 | 0 |
| 1,520 | fettman53 | 1:41.55 | 0 | 0 |
| 1,521 | fooffie | 1:41.58 | 0 | 0 |
| 1,522 | Aerus | 1:41.59 | 0 | 0 |
| 1,523 | Marko M | 1:41.62 | 0 | 0 |
| 1,524 | Yubert | 1:41.63 | 0 | 0 |
| 1,525 | |TLM| MS-Dok | 1:41.71 | 0 | 0 |
| 1,526 | Luxora | 1:41.73 | 0 | 0 |
| 1,527 | xavi19 | 1:41.75 | 0 | 0 |
| 1,527 | Your mate | 1:41.75 | 0 | 0 |
| 1,529 | Dantalion | 1:41.79 | 0 | 0 |
| 1,529 | Stellarynn | 1:41.79 | 0 | 0 |
| 1,531 | Matthew | 1:41.80 | 0 | 0 |
| 1,532 | Archelon | 1:41.82 | 0 | 0 |
| 1,533 | Derek Willis | 1:41.83 | 0 | 0 |
| 1,533 | a beaver | 1:41.83 | 0 | 0 |
| 1,535 | RisingHERO19 | 1:41.86 | 0 | 0 |
| 1,536 | Juni | 1:41.88 | 0 | 0 |
| 1,537 | arkhayem | 1:41.89 | 0 | 0 |
| 1,538 | Warriot | 1:41.90 | 0 | 0 |
| 1,539 | BMX Master Chief | 1:41.91 | 0 | 0 |
| 1,540 | zmbie | 1:41.92 | 0 | 0 |
| 1,541 | Blexyde | 1:41.93 | 0 | 0 |
| 1,542 | Lampshade_4 | 1:41.97 | 0 | 0 |
| 1,543 | glitchdx | 1:42.03 | 0 | 0 |
| 1,544 | ^1HIV+ ^7|^9 Startkopierer | 1:42.05 | 0 | 0 |
| 1,545 | Schmirken | 1:42.09 | 0 | 0 |
| 1,545 | Dreadnox | 1:42.09 | 0 | 0 |
| 1,547 | TheFantasticMrShags | 1:42.11 | 0 | 0 |
| 1,548 | PΙCΛPΙCΔ | 1:42.12 | 0 | 0 |
| 1,549 | ワシねこ | 1:42.14 | 0 | 0 |
| 1,550 | Fumeijoe | 1:42.17 | 0 | 0 |
| 1,551 | E'lo | 1:42.19 | 0 | 0 |
| 1,551 | Wit | 1:42.19 | 0 | 0 |
| 1,553 | Snekis Khan ( ‵□') ︵ | 1:42.21 | 0 | 0 |
| 1,554 | tipek360 | 1:42.30 | 0 | 0 |
| 1,555 | Zenixic | 1:42.33 | 0 | 0 |
| 1,556 | Shadow_Axel | 1:42.38 | 0 | 0 |
| 1,557 | GetEmOtterHere | 1:42.42 | 0 | 0 |
| 1,558 | Dra9onb0rn | Jan | 1:42.43 | 0 | 0 |
| 1,559 | SpitFire195jws | 1:42.45 | 0 | 0 |
| 1,560 | Yuki Arika Muze | 1:42.46 | 0 | 0 |
| 1,561 | Felinaxo | 1:42.50 | 0 | 0 |
| 1,562 | N | 1:42.52 | 0 | 0 |
| 1,562 | GoldGoldTM | 1:42.52 | 0 | 0 |
| 1,564 | tveh | 1:42.53 | 0 | 0 |
| 1,564 | Tequila_Megido | 1:42.53 | 0 | 0 |
| 1,566 | Mattiator | 1:42.60 | 0 | 0 |
| 1,567 | Rjiig123 | 1:42.61 | 0 | 0 |
| 1,568 | Elderas | 1:42.62 | 0 | 0 |
| 1,569 | kevzor | 1:42.66 | 0 | 0 |
| 1,569 | Loubou | 1:42.66 | 0 | 0 |
| 1,571 | Damionf | 1:42.72 | 0 | 0 |
| 1,572 | a&b | 1:42.77 | 0 | 0 |
| 1,572 | svsamuelvitormaximo16 | 1:42.77 | 0 | 0 |
| 1,574 | alleycat | 1:42.80 | 0 | 0 |
| 1,575 | Zimmerman | 1:42.81 | 0 | 0 |
| 1,576 | Count Spatula | 1:42.83 | 0 | 0 |
| 1,577 | Ener | 1:42.84 | 0 | 0 |
| 1,578 | キング Raff 様 | 1:42.86 | 0 | 0 |
| 1,578 | Neopolitan Sky | 1:42.86 | 0 | 0 |
| 1,580 | Zeezadoobee | 1:42.87 | 0 | 0 |
| 1,581 | Aimbrot, die Seegurke | 1:42.88 | 0 | 0 |
| 1,582 | shlyapasha | 1:42.90 | 0 | 0 |
| 1,583 | Nobody | 1:42.93 | 0 | 0 |
| 1,584 | Dick Warlock | 1:42.97 | 0 | 0 |
| 1,585 | YoloMoth | 1:43.02 | 0 | 0 |
| 1,586 | Reinforce Virta | 1:43.05 | 0 | 0 |
| 1,587 | Cherokee2391 | 1:43.06 | 0 | 0 |
| 1,588 | Kiwi | 1:43.08 | 0 | 0 |
| 1,589 | Dazzle10 | 1:43.11 | 0 | 0 |
| 1,590 | DeiDreamin | 1:43.12 | 0 | 0 |
| 1,591 | SmolSucc | 1:43.13 | 0 | 0 |
| 1,592 | partymild. | 1:43.18 | 0 | 0 |
| 1,593 | North | 1:43.20 | 0 | 0 |
| 1,593 | Terr4 | 1:43.20 | 0 | 0 |
| 1,595 | ENDO | 1:43.21 | 0 | 0 |
| 1,596 | Spiderdragon | 1:43.22 | 0 | 0 |
| 1,597 | White Bird | 1:43.23 | 0 | 0 |
| 1,597 | Xanday | 1:43.23 | 0 | 0 |
| 1,599 | Imperialbrutal | 1:43.25 | 0 | 0 |
| 1,600 | Jackie | 1:43.26 | 0 | 0 |
| 1,601 | Enthrall Decree | 1:43.30 | 0 | 0 |
| 1,602 | Rip | 1:43.33 | 0 | 0 |
| 1,603 | Ren-Ren | 1:43.34 | 0 | 0 |
| 1,604 | HISKI LP | 1:43.37 | 0 | 0 |
| 1,604 | BaRa.95. | 1:43.37 | 0 | 0 |
| 1,606 | Jaymie | 1:43.40 | 0 | 0 |
| 1,607 | mrg.dem | 1:43.42 | 0 | 0 |
| 1,608 | Teclon | 1:43.46 | 0 | 0 |
| 1,609 | roncli | 1:43.53 | 0 | 0 |
| 1,610 | Nigeta | 1:43.58 | 0 | 0 |
| 1,611 | Palomo320 Mmh | 1:43.59 | 0 | 0 |
| 1,612 | EonShark | 1:43.61 | 0 | 0 |
| 1,613 | bullet babe | 1:43.64 | 0 | 0 |
| 1,613 | Puff | 1:43.64 | 0 | 0 |
| 1,615 | fightman | 1:43.68 | 0 | 0 |
| 1,616 | Animax | 1:43.70 | 0 | 0 |
| 1,617 | GroovyDoo | 1:43.71 | 0 | 0 |
| 1,618 | Eternal_Dreamer_23 | 1:43.74 | 0 | 0 |
| 1,619 | ratoncito | 1:43.77 | 0 | 0 |
| 1,620 | Clunt Yeastwood | 1:43.78 | 0 | 0 |
| 1,621 | weaponized awootism | 1:43.79 | 0 | 0 |
| 1,622 | endergecko1218 | 1:43.81 | 0 | 0 |
| 1,623 | FluffyBunnyKing282 | 1:43.82 | 0 | 0 |
| 1,624 | Jack the Druid | 1:43.83 | 0 | 0 |
| 1,625 | Queritz | 1:43.85 | 0 | 0 |
| 1,625 | Andrux | 1:43.85 | 0 | 0 |
| 1,627 | QBall™ | 1:43.91 | 0 | 0 |
| 1,628 | Saverin | 1:43.93 | 0 | 0 |
| 1,629 | Phayne | 1:43.94 | 0 | 0 |
| 1,630 | NOVA | 1:43.95 | 0 | 0 |
| 1,631 | Sora | 1:43.98 | 0 | 0 |
| 1,632 | baybapbob | 1:44.00 | 0 | 0 |
| 1,633 | [ultitech] luckyxxl | 1:44.01 | 0 | 0 |
| 1,634 | Kimmykix | 1:44.04 | 0 | 0 |
| 1,635 | pager | 1:44.05 | 0 | 0 |
| 1,635 | artillery beetle | 1:44.05 | 0 | 0 |
| 1,635 | Indy1984 | 1:44.05 | 0 | 0 |
| 1,638 | Spelunkadoodle | 1:44.10 | 0 | 0 |
| 1,639 | AlveKatt | 1:44.11 | 0 | 0 |
| 1,640 | hogoto | 1:44.13 | 0 | 0 |
| 1,641 | Torqman | 1:44.15 | 0 | 0 |
| 1,642 | Newtalot | 1:44.18 | 0 | 0 |
| 1,643 | Earthnuker | 1:44.19 | 0 | 0 |
| 1,643 | Seirown | 1:44.19 | 0 | 0 |
| 1,645 | Big Disk | 1:44.23 | 0 | 0 |
| 1,645 | shadow | 1:44.23 | 0 | 0 |
| 1,645 | Muggestutz | 1:44.23 | 0 | 0 |
| 1,648 | doomsday device | 1:44.25 | 0 | 0 |
| 1,649 | systemsoad | 1:44.26 | 0 | 0 |
| 1,649 | Geist | 1:44.26 | 0 | 0 |
| 1,651 | Fussel | 1:44.29 | 0 | 0 |
| 1,652 | Julius_Geezer | 1:44.31 | 0 | 0 |
| 1,652 | sir. DoodJerr | 1:44.31 | 0 | 0 |
| 1,654 | Kansil | 1:44.34 | 0 | 0 |
| 1,655 | shaw | 1:44.36 | 0 | 0 |
| 1,656 | ARCHANGEL | 1:44.38 | 0 | 0 |
| 1,656 | drakna73 | 1:44.38 | 0 | 0 |
| 1,658 | Rat with Gun | 1:44.46 | 0 | 0 |
| 1,659 | -NB-Mbaya | 1:44.49 | 0 | 0 |
| 1,659 | Gammeta | 1:44.49 | 0 | 0 |
| 1,661 | zendayaaa <3 | 1:44.54 | 0 | 0 |
| 1,662 | EnderouSama | 1:44.56 | 0 | 0 |
| 1,663 | MusicPilot n.5 | 1:44.57 | 0 | 0 |
| 1,664 | SnackLover | 1:44.60 | 0 | 0 |
| 1,664 | Erebus | 1:44.60 | 0 | 0 |
| 1,666 | CMJ | 1:44.62 | 0 | 0 |
| 1,667 | jonesysound | 1:44.63 | 0 | 0 |
| 1,667 | Guybrush Threepwood | 1:44.63 | 0 | 0 |
| 1,669 | Rozarism | 1:44.73 | 0 | 0 |
| 1,670 | PaTrickShot Star | 1:44.76 | 0 | 0 |
| 1,670 | Meconis | 1:44.76 | 0 | 0 |
| 1,672 | Lunar Knight36 | 1:44.79 | 0 | 0 |
| 1,672 | ええやつ | 1:44.79 | 0 | 0 |
| 1,674 | Onur | 1:44.82 | 0 | 0 |
| 1,675 | Leix | 1:44.87 | 0 | 0 |
| 1,676 | The Ol' Razzle Dazzle | 1:44.88 | 0 | 0 |
| 1,676 | Quadrax | 1:44.88 | 0 | 0 |
| 1,678 | Wild_Card | 1:44.90 | 0 | 0 |
| 1,679 | SwagCorn | 1:44.91 | 0 | 0 |
| 1,680 | Espabilaa | 1:44.95 | 0 | 0 |
| 1,681 | Katesa | 1:44.98 | 0 | 0 |
| 1,681 | Raiden | 1:44.98 | 0 | 0 |
| 1,683 | megalodon0328 | 1:44.99 | 0 | 0 |
| 1,684 | Ugly | 1:45.00 | 0 | 0 |
| 1,685 | Rafoie | 1:45.01 | 0 | 0 |
| 1,685 | Semtex4ya | 1:45.01 | 0 | 0 |
| 1,687 | Alili | 1:45.03 | 0 | 0 |
| 1,688 | Frizzybman11 | 1:45.11 | 0 | 0 |
| 1,689 | 마인로건(MINELOGUN) | 1:45.12 | 0 | 0 |
| 1,690 | MintyFreshFries | 1:45.14 | 0 | 0 |
| 1,691 | found3r | 1:45.16 | 0 | 0 |
| 1,691 | Draco | 1:45.16 | 0 | 0 |
| 1,693 | FlyingToaster1 | 1:45.19 | 0 | 0 |
| 1,694 | LiquidShark | 1:45.20 | 0 | 0 |
| 1,695 | ketikidistv | 1:45.22 | 0 | 0 |
| 1,696 | The Good Gaming Dragon | 1:45.26 | 0 | 0 |
| 1,697 | Veldorn | 1:45.27 | 0 | 0 |
| 1,697 | biggus diccus | 1:45.27 | 0 | 0 |
| 1,699 | Pointed Mammal29 | 1:45.32 | 0 | 0 |
| 1,700 | byanymeansnecessary | 1:45.33 | 0 | 0 |
| 1,701 | Siber_Freak | 1:45.35 | 0 | 0 |
| 1,701 | LogicMist | 1:45.35 | 0 | 0 |
| 1,701 | Jezo | 1:45.35 | 0 | 0 |
| 1,704 | asd123 | 1:45.36 | 0 | 0 |
| 1,705 | LISAN AL-GAIB | 1:45.41 | 0 | 0 |
| 1,706 | DF4 | 1:45.42 | 0 | 0 |
| 1,706 | CrimsonFez | 1:45.42 | 0 | 0 |
| 1,708 | bruh | 1:45.44 | 0 | 0 |
| 1,709 | >>KIO<< | 1:45.49 | 0 | 0 |
| 1,710 | Magnowser | 1:45.50 | 0 | 0 |
| 1,711 | RainBowBine | 1:45.53 | 0 | 0 |
| 1,712 | Arsanthania | 1:45.63 | 0 | 0 |
| 1,713 | tigerchef123 | 1:45.68 | 0 | 0 |
| 1,714 | Ninja Potato | 1:45.73 | 0 | 0 |
| 1,715 | Koussevitzky | 1:45.74 | 0 | 0 |
| 1,716 | Isosceles | 1:45.77 | 0 | 0 |
| 1,717 | Jhojhoido | 1:45.78 | 0 | 0 |
| 1,718 | DeathCount | 1:45.83 | 0 | 0 |
| 1,718 | Solar Field | 1:45.83 | 0 | 0 |
| 1,720 | Shi_doh | 1:45.85 | 0 | 0 |
| 1,721 | GekoKid | 1:45.86 | 0 | 0 |
| 1,722 | MeatMachine | 1:45.98 | 0 | 0 |
| 1,723 | Skizz | 1:46.00 | 0 | 0 |
| 1,724 | ShotgunSalad | 1:46.03 | 0 | 0 |
| 1,725 | Reaster | 1:46.15 | 0 | 0 |
| 1,726 | hoknjok | 1:46.18 | 0 | 0 |
| 1,727 | Kerusos | 1:46.20 | 0 | 0 |
| 1,728 | JustB4DW0LF | 1:46.25 | 0 | 0 |
| 1,729 | FENT FIEND | 1:46.26 | 0 | 0 |
| 1,729 | Seal_Otter | 1:46.26 | 0 | 0 |
| 1,731 | witemilk1 | 1:46.29 | 0 | 0 |
| 1,732 | Exoman | 1:46.32 | 0 | 0 |
| 1,733 | Kayn | 1:46.34 | 0 | 0 |
| 1,734 | Handsome CHEESE | 1:46.38 | 0 | 0 |
| 1,735 | 2Infinity&Evil | 1:46.40 | 0 | 0 |
| 1,735 | HPediem | 1:46.40 | 0 | 0 |
| 1,737 | Thr | 1:46.43 | 0 | 0 |
| 1,738 | F.L.P-e tank24 | 1:46.45 | 0 | 0 |
| 1,738 | Pexillien | 1:46.45 | 0 | 0 |
| 1,740 | Coyotegrim | 1:46.47 | 0 | 0 |
| 1,741 | The Edgy Bitch | 1:46.50 | 0 | 0 |
| 1,742 | DarkestDaydream | 1:46.54 | 0 | 0 |
| 1,742 | enerszon | 1:46.54 | 0 | 0 |
| 1,744 | Tytherius Cöömerbrand | 1:46.55 | 0 | 0 |
| 1,745 | Virus Dragovar | 1:46.57 | 0 | 0 |
| 1,746 | ♠ 😈 Nokafutoku 👿 ♠ ✅ | 1:46.61 | 0 | 0 |
| 1,747 | tyon25 | 1:46.65 | 0 | 0 |
| 1,748 | Schranzinator | 1:46.66 | 0 | 0 |
| 1,749 | Jupiter One | 1:46.68 | 0 | 0 |
| 1,750 | Verst | 1:46.71 | 0 | 0 |
| 1,750 | Lylfyf | 1:46.71 | 0 | 0 |
| 1,752 | Red Sun | 1:46.72 | 0 | 0 |
| 1,753 | Chicago Grim Reaper | 1:46.75 | 0 | 0 |
| 1,754 | Silly | 1:46.76 | 0 | 0 |
| 1,755 | berenji012 | 1:46.78 | 0 | 0 |
| 1,756 | Aldrachion | 1:46.81 | 0 | 0 |
| 1,757 | MPR03a | 1:46.84 | 0 | 0 |
| 1,758 | TheDukeOfTaco | 1:46.85 | 0 | 0 |
| 1,758 | Fetus Fajita | 1:46.85 | 0 | 0 |
| 1,760 | Plushsealy | 1:46.87 | 0 | 0 |
| 1,761 | Muster Cef | 1:46.91 | 0 | 0 |
| 1,761 | Bones | 1:46.91 | 0 | 0 |
| 1,763 | Melon | 1:46.92 | 0 | 0 |
| 1,763 | Spoodertron | 1:46.92 | 0 | 0 |
| 1,765 | Kyouyaya | 1:46.93 | 0 | 0 |
| 1,766 | Nnumby | 1:46.97 | 0 | 0 |
| 1,767 | Gurgy | 1:47.06 | 0 | 0 |
| 1,768 | moomers | 1:47.10 | 0 | 0 |
| 1,769 | Sleepy | 1:47.14 | 0 | 0 |
| 1,769 | DriveLine | 1:47.14 | 0 | 0 |
| 1,771 | SigmaKlim | 1:47.17 | 0 | 0 |
| 1,772 | Cruelkana | 1:47.26 | 0 | 0 |
| 1,773 | Тарковский! | 1:47.27 | 0 | 0 |
| 1,774 | 200+PingMAN | 1:47.29 | 0 | 0 |
| 1,775 | TG | 1:47.30 | 0 | 0 |
| 1,775 | femptocrisis | 1:47.30 | 0 | 0 |
| 1,777 | dibbylouder | 1:47.31 | 0 | 0 |
| 1,778 | yuri gagarin's creamy interior | 1:47.35 | 0 | 0 |
| 1,779 | Rush | 1:47.43 | 0 | 0 |
| 1,780 | Alex1on | 1:47.50 | 0 | 0 |
| 1,781 | SIGSTACKFAULT | 1:47.59 | 0 | 0 |
| 1,782 | Ivan Knotty | 1:47.60 | 0 | 0 |
| 1,783 | Legion | 1:47.65 | 0 | 0 |
| 1,784 | SoopeSpeed | 1:47.77 | 0 | 0 |
| 1,785 | XuP[y]Pr | 1:47.78 | 0 | 0 |
| 1,786 | R-M-@-L | 1:47.84 | 0 | 0 |
| 1,787 | Ara | 1:47.88 | 0 | 0 |
| 1,788 | Donkey | 1:47.95 | 0 | 0 |
| 1,789 | Madeen | 1:47.96 | 0 | 0 |
| 1,790 | Prince Pablo | 1:47.98 | 0 | 0 |
| 1,791 | Skyler Fox | 1:47.99 | 0 | 0 |
| 1,792 | Chamberbytes | 1:48.01 | 0 | 0 |
| 1,793 | Crognak, All-Father | 1:48.04 | 0 | 0 |
| 1,794 | NikoLag | 1:48.09 | 0 | 0 |
| 1,795 | Crisão | 1:48.10 | 0 | 0 |
| 1,796 | 000ASAYT000 | 1:48.11 | 0 | 0 |
| 1,796 | Dragonsbane1270 | 1:48.11 | 0 | 0 |
| 1,798 | Captain Kicktar | 1:48.13 | 0 | 0 |
| 1,799 | Ikēito | 1:48.15 | 0 | 0 |
| 1,800 | timanza | 1:48.22 | 0 | 0 |
| 1,801 | Ungarr | 1:48.24 | 0 | 0 |
| 1,802 | PantoGoose | 1:48.26 | 0 | 0 |
| 1,803 | tawnted | 1:48.27 | 0 | 0 |
| 1,804 | Lego™ Pipe-Bomb | 1:48.28 | 0 | 0 |
| 1,805 | DraconicBurners | 1:48.32 | 0 | 0 |
| 1,806 | DLanc | 1:48.33 | 0 | 0 |
| 1,807 | Jehuty | 1:48.35 | 0 | 0 |
| 1,808 | Kenjamin | 1:48.37 | 0 | 0 |
| 1,809 | Samimimi | 1:48.38 | 0 | 0 |
| 1,810 | TastaturCrasher | Rico | 1:48.41 | 0 | 0 |
| 1,811 | nrgpro | 1:48.45 | 0 | 0 |
| 1,812 | Exo | 1:48.48 | 0 | 0 |
| 1,813 | Wipeout! | 1:48.51 | 0 | 0 |
| 1,814 | _olivia | 1:48.54 | 0 | 0 |
| 1,815 | JSomber | 1:48.56 | 0 | 0 |
| 1,816 | Chompa | 1:48.58 | 0 | 0 |
| 1,817 | B-VOL | 1:48.63 | 0 | 0 |
| 1,817 | Sky | 1:48.63 | 0 | 0 |
| 1,819 | Lame_ | 1:48.65 | 0 | 0 |
| 1,820 | The Salt Is REAL | 1:48.70 | 0 | 0 |
| 1,821 | Methuselah | 1:48.72 | 0 | 0 |
| 1,822 | twistedtool | 1:48.79 | 0 | 0 |
| 1,823 | Gleam | 1:48.80 | 0 | 0 |
| 1,824 | TajPilon | 1:48.81 | 0 | 0 |
| 1,825 | Wereberry | 1:48.88 | 0 | 0 |
| 1,826 | Rubio03 | 1:48.89 | 0 | 0 |
| 1,827 | The Terrible Pangwan | 1:48.94 | 0 | 0 |
| 1,828 | Stoklasa | 1:48.95 | 0 | 0 |
| 1,828 | beamerkilling | 1:48.95 | 0 | 0 |
| 1,830 | yes... yobby | 1:49.03 | 0 | 0 |
| 1,831 | Gooseplums | 1:49.05 | 0 | 0 |
| 1,832 | Lambreck | 1:49.08 | 0 | 0 |
| 1,833 | Peagle | 1:49.17 | 0 | 0 |
| 1,834 | AERO | 1:49.18 | 0 | 0 |
| 1,835 | kkgobkk | 1:49.25 | 0 | 0 |
| 1,836 | dragnor | 1:49.26 | 0 | 0 |
| 1,837 | Overlord | 1:49.27 | 0 | 0 |
| 1,838 | Loune Fire | 1:49.34 | 0 | 0 |
| 1,839 | XCVIBUR | 1:49.35 | 0 | 0 |
| 1,840 | isaac42lime | 1:49.36 | 0 | 0 |
| 1,841 | Baron Baronowski | 1:49.37 | 0 | 0 |
| 1,842 | [deleted] | 1:49.39 | 0 | 0 |
| 1,843 | Night Roost | 1:49.40 | 0 | 0 |
| 1,843 | Patches | 1:49.40 | 0 | 0 |
| 1,845 | AstroBold | 1:49.41 | 0 | 0 |
| 1,845 | [BIT] Iroden | 1:49.41 | 0 | 0 |
| 1,847 | Little Arturo | 1:49.51 | 0 | 0 |
| 1,848 | Corplace | 1:49.52 | 0 | 0 |
| 1,849 | SAGA | 1:49.53 | 0 | 0 |
| 1,850 | Plentiful | 1:49.56 | 0 | 0 |
| 1,850 | Sclanch | 1:49.56 | 0 | 0 |
| 1,852 | Sev | 1:49.61 | 0 | 0 |
| 1,852 | Евгений Пригожин | 1:49.61 | 0 | 0 |
| 1,854 | French Doge | 1:49.66 | 0 | 0 |
| 1,854 | Milka | 1:49.66 | 0 | 0 |
| 1,856 | Shay | 1:49.67 | 0 | 0 |
| 1,857 | SomeRsilent | 1:49.70 | 0 | 0 |
| 1,858 | The Soviet | 1:49.71 | 0 | 0 |
| 1,858 | jumako | 1:49.71 | 0 | 0 |
| 1,860 | Noe | 1:49.72 | 0 | 0 |
| 1,861 | Kresum | 1:49.75 | 0 | 0 |
| 1,862 | MCrekna1 | 1:49.82 | 0 | 0 |
| 1,863 | Thundering Cloud | 1:49.88 | 0 | 0 |
| 1,864 | andyLerda | 1:49.94 | 0 | 0 |
| 1,865 | Altchester | 1:49.95 | 0 | 0 |
| 1,866 | Kobayen | 1:49.97 | 0 | 0 |
| 1,867 | DapperDandyDan | 1:49.99 | 0 | 0 |
| 1,868 | AvailableUsername | 1:50.02 | 0 | 0 |
| 1,869 | Da Doom Man | 1:50.06 | 0 | 0 |
| 1,869 | DarkWolf | 1:50.06 | 0 | 0 |
| 1,871 | Omega_Raptors | 1:50.13 | 0 | 0 |
| 1,872 | petlander | 1:50.15 | 0 | 0 |
| 1,873 | Khailz | 1:50.18 | 0 | 0 |
| 1,874 | DarkSide | 1:50.30 | 0 | 0 |
| 1,874 | Maki | 1:50.30 | 0 | 0 |
| 1,876 | =M|F= VictorB | 1:50.31 | 0 | 0 |
| 1,877 | Tobi | 1:50.34 | 0 | 0 |
| 1,878 | Negaprion | 1:50.36 | 0 | 0 |
| 1,879 | driima | 1:50.38 | 0 | 0 |
| 1,880 | Alastrion | 1:50.42 | 0 | 0 |
| 1,881 | Grimmy | 1:50.43 | 0 | 0 |
| 1,882 | Skinny Chrinis | 1:50.45 | 0 | 0 |
| 1,883 | Huntzilla | 1:50.51 | 0 | 0 |
| 1,884 | Pinker Hund | 1:50.54 | 0 | 0 |
| 1,885 | Ravanaga | 1:50.56 | 0 | 0 |
| 1,886 | Vin Diesel Mailbox | 1:50.57 | 0 | 0 |
| 1,887 | ThatStarwarsGuy | 1:50.63 | 0 | 0 |
| 1,888 | Alesha170 | 1:50.66 | 0 | 0 |
| 1,889 | Loving Wolf | 1:50.69 | 0 | 0 |
| 1,890 | thebrothers | 1:50.70 | 0 | 0 |
| 1,891 | Perseus | 1:50.73 | 0 | 0 |
| 1,892 | JAG | 1:50.75 | 0 | 0 |
| 1,893 | Alfael | 1:50.79 | 0 | 0 |
| 1,894 | DON DIGIDON | 1:50.80 | 0 | 0 |
| 1,895 | ToggleRPC | 1:50.83 | 0 | 0 |
| 1,896 | Flaccid Assassin | 1:50.86 | 0 | 0 |
| 1,896 | welkoozle | 1:50.86 | 0 | 0 |
| 1,898 | RhinoBlindado | 1:50.91 | 0 | 0 |
| 1,899 | Griff-indoors | 1:50.94 | 0 | 0 |
| 1,900 | Bone Lee | 1:50.97 | 0 | 0 |
| 1,901 | Spartan117® | 1:51.00 | 0 | 0 |
| 1,902 | ZeroSavesalot | 1:51.01 | 0 | 0 |
| 1,902 | tsatsae | 1:51.01 | 0 | 0 |
| 1,904 | SirEldricht | 1:51.04 | 0 | 0 |
| 1,905 | Lokin | 1:51.09 | 0 | 0 |
| 1,906 | HanryProper | 1:51.13 | 0 | 0 |
| 1,907 | Toxicologixal | 1:51.21 | 0 | 0 |
| 1,908 | Gunz | 1:51.23 | 0 | 0 |
| 1,909 | Wolfe Houndra | 1:51.27 | 0 | 0 |
| 1,909 | joshrod | 1:51.27 | 0 | 0 |
| 1,911 | Fuffmydog | 1:51.38 | 0 | 0 |
| 1,912 | Chaito | 1:51.41 | 0 | 0 |
| 1,913 | Pixelbo | 1:51.42 | 0 | 0 |
| 1,914 | Vencer_FRC | 1:51.43 | 0 | 0 |
| 1,915 | Sokkero | 1:51.48 | 0 | 0 |
| 1,916 | BlackMortem | 1:51.55 | 0 | 0 |
| 1,917 | Jukey J | 1:51.60 | 0 | 0 |
| 1,918 | julio_alexx | 1:51.72 | 0 | 0 |
| 1,919 | PedroelCanguro | 1:51.78 | 0 | 0 |
| 1,920 | Pregnant | 1:51.79 | 0 | 0 |
| 1,920 | Dgeept | 1:51.79 | 0 | 0 |
| 1,922 | Frox | 1:51.80 | 0 | 0 |
| 1,922 | JamsGaming23 | 1:51.80 | 0 | 0 |
| 1,924 | I drink, therefore I drive | 1:51.88 | 0 | 0 |
| 1,925 | SP** | 1:51.90 | 0 | 0 |
| 1,926 | do it the philZstyle | 1:52.00 | 0 | 0 |
| 1,927 | pie | 1:52.05 | 0 | 0 |
| 1,928 | ThePyro | 1:52.20 | 0 | 0 |
| 1,929 | Lotus | 1:52.21 | 0 | 0 |
| 1,930 | Grammynumnums | 1:52.24 | 0 | 0 |
| 1,930 | Apoctix | 1:52.24 | 0 | 0 |
| 1,930 | J4M3Z34 | 1:52.24 | 0 | 0 |
| 1,933 | Welli's | 1:52.28 | 0 | 0 |
| 1,934 | Mazerswift | 1:52.33 | 0 | 0 |
| 1,935 | Holt | 1:52.36 | 0 | 0 |
| 1,936 | Knight-of-Ni | 1:52.37 | 0 | 0 |
| 1,937 | Juantxo Talarga | 1:52.38 | 0 | 0 |
| 1,938 | Birdiot | 1:52.40 | 0 | 0 |
| 1,939 | jnfred | 1:52.46 | 0 | 0 |
| 1,940 | Kyle Watson | 1:52.57 | 0 | 0 |
| 1,941 | Snarf | 1:52.66 | 0 | 0 |
| 1,941 | cskpirate | 1:52.66 | 0 | 0 |
| 1,943 | Lore maker | 1:52.67 | 0 | 0 |
| 1,944 | Greatdrift | 1:52.69 | 0 | 0 |
| 1,944 | VZD | 1:52.69 | 0 | 0 |
| 1,946 | Solar | 1:52.70 | 0 | 0 |
| 1,947 | Slink | 1:52.75 | 0 | 0 |
| 1,948 | Martins Leggeul | 1:52.83 | 0 | 0 |
| 1,949 | _BrightDarkness_ | 1:52.86 | 0 | 0 |
| 1,950 | Bakdurak | 1:52.88 | 0 | 0 |
| 1,951 | Go, Dog. Go! | 1:52.89 | 0 | 0 |
| 1,952 | Barry snorevitch | 1:52.93 | 0 | 0 |
| 1,953 | Mr Cook | 1:52.94 | 0 | 0 |
| 1,954 | RunnerMercer | 1:53.00 | 0 | 0 |
| 1,955 | tao | 1:53.01 | 0 | 0 |
| 1,955 | ifreg0 | 1:53.01 | 0 | 0 |
| 1,957 | badjackjack | 1:53.02 | 0 | 0 |
| 1,957 | Ar7icP3nguin | 1:53.02 | 0 | 0 |
| 1,959 | N0_1 | 1:53.03 | 0 | 0 |
| 1,960 | potion | 1:53.05 | 0 | 0 |
| 1,961 | Slyxxe | 1:53.07 | 0 | 0 |
| 1,962 | HDTV | 1:53.16 | 0 | 0 |
| 1,963 | Javaris Jamar Javarison-Lamar | 1:53.18 | 0 | 0 |
| 1,964 | GodzillaVr | 1:53.23 | 0 | 0 |
| 1,965 | LittleHappyWolf | 1:53.24 | 0 | 0 |
| 1,965 | Lena The Snom Mom | 1:53.24 | 0 | 0 |
| 1,967 | SavvySoviet | 1:53.28 | 0 | 0 |
| 1,968 | Proximity | 1:53.30 | 0 | 0 |
| 1,968 | TOYTOY | 1:53.30 | 0 | 0 |
| 1,970 | NyxEline | 1:53.32 | 0 | 0 |
| 1,971 | redvandyke | 1:53.34 | 0 | 0 |
| 1,972 | Baldanders19 | 1:53.35 | 0 | 0 |
| 1,973 | Bdine | 1:53.38 | 0 | 0 |
| 1,974 | Twaxy | 1:53.42 | 0 | 0 |
| 1,975 | zZCENTURIONZz | 1:53.49 | 0 | 0 |
| 1,976 | Walrus | 1:53.50 | 0 | 0 |
| 1,977 | Bugbeard | 1:53.73 | 0 | 0 |
| 1,978 | Larkman | 1:53.75 | 0 | 0 |
| 1,979 | Cakey | 1:53.78 | 0 | 0 |
| 1,980 | Mr. Grizz | 1:53.91 | 0 | 0 |
| 1,981 | Philwhore | 1:53.92 | 0 | 0 |
| 1,982 | a funny doggirl | 1:53.93 | 0 | 0 |
| 1,983 | Kriya | 1:53.95 | 0 | 0 |
| 1,984 | Doorcrusher | 1:54.04 | 0 | 0 |
| 1,985 | Notrec | 1:54.13 | 0 | 0 |
| 1,985 | overshock-v15 | 1:54.13 | 0 | 0 |
| 1,987 | blobjim | 1:54.16 | 0 | 0 |
| 1,988 | DvN | 1:54.18 | 0 | 0 |
| 1,989 | MuscleWizard_FR | 1:54.25 | 0 | 0 |
| 1,990 | Quentillions | 1:54.27 | 0 | 0 |
| 1,990 | monica | 1:54.27 | 0 | 0 |
| 1,992 | XxSupremeCountoFedoraTipper420xX | 1:54.29 | 0 | 0 |
| 1,993 | Battle00333 | 1:54.32 | 0 | 0 |
| 1,994 | Archu | 1:54.38 | 0 | 0 |
| 1,995 | Friendly Dragon | 1:54.39 | 0 | 0 |
| 1,996 | Getty Image Egg Supreme | 1:54.43 | 0 | 0 |
| 1,997 | BerriesAndCream | 1:54.44 | 0 | 0 |
| 1,998 | CrossRoadStyx | 1:54.52 | 0 | 0 |
| 1,998 | A | 1:54.52 | 0 | 0 |
| 2,000 | Marsopa. | 1:54.55 | 0 | 0 |
| 2,000 | THEDINKY | 1:54.55 | 0 | 0 |
| 2,002 | Ratonski | 1:54.57 | 0 | 0 |
| 2,002 | Lighti | 1:54.57 | 0 | 0 |
| 2,004 | Cinecko | 1:54.63 | 0 | 0 |
| 2,005 | JanH | 1:54.65 | 0 | 0 |
| 2,005 | Nova | 1:54.65 | 0 | 0 |
| 2,007 | EXkata | 1:54.67 | 0 | 0 |
| 2,008 | leo | 1:54.77 | 0 | 0 |
| 2,008 | Vitiosa | 1:54.77 | 0 | 0 |
| 2,010 | *notices ur dreams* | 1:54.80 | 0 | 0 |
| 2,011 | Deathmachine777 | 1:54.85 | 0 | 0 |
| 2,012 | Fat Orc | 1:54.87 | 0 | 0 |
| 2,013 | rezzonating | 1:54.89 | 0 | 0 |
| 2,014 | Gendrome | 1:54.91 | 0 | 0 |
| 2,014 | Voxr | 1:54.91 | 0 | 0 |
| 2,014 | Kuha | 1:54.91 | 0 | 0 |
| 2,017 | Calcarious | 1:54.98 | 0 | 0 |
| 2,018 | Berny23 | 1:55.00 | 0 | 0 |
| 2,019 | SillyKitty | 1:55.01 | 0 | 0 |
| 2,020 | Zed™ | 1:55.04 | 0 | 0 |
| 2,021 | Jump Gunnington | 1:55.10 | 0 | 0 |
| 2,022 | marcos | 1:55.16 | 0 | 0 |
| 2,023 | TheLegend69 | 1:55.17 | 0 | 0 |
| 2,024 | Энт | 1:55.18 | 0 | 0 |
| 2,025 | nsɐʞkasu | 1:55.23 | 0 | 0 |
| 2,026 | Aventurain | 1:55.34 | 0 | 0 |
| 2,027 | That Thing | 1:55.38 | 0 | 0 |
| 2,027 | spookeysnowboard | 1:55.38 | 0 | 0 |
| 2,029 | MK | 1:55.40 | 0 | 0 |
| 2,030 | Aespher | 1:55.53 | 0 | 0 |
| 2,031 | Grunkfuss The Clown | 1:55.63 | 0 | 0 |
| 2,032 | SirDeyong | 1:55.71 | 0 | 0 |
| 2,033 | The Biggest [REDACTED] Ogre | 1:55.80 | 0 | 0 |
| 2,034 | yuyurei | 1:55.81 | 0 | 0 |
| 2,035 | g●Sleep | 1:55.85 | 0 | 0 |
| 2,036 | Dinayu | 1:55.87 | 0 | 0 |
| 2,037 | foxmoder | 1:55.91 | 0 | 0 |
| 2,038 | don.mario | 1:55.93 | 0 | 0 |
| 2,039 | SentientAntColony | 1:55.94 | 0 | 0 |
| 2,040 | Burst_15 | 1:55.98 | 0 | 0 |
| 2,041 | Jayko | 1:56.03 | 0 | 0 |
| 2,042 | Ramalis | 1:56.13 | 0 | 0 |
| 2,042 | Mathias | 1:56.13 | 0 | 0 |
| 2,044 | HatCat, Oil Baron | 1:56.20 | 0 | 0 |
| 2,045 | Aether Whitefeather | 1:56.29 | 0 | 0 |
| 2,046 | Afromation | 1:56.33 | 0 | 0 |
| 2,046 | Mouseochism | 1:56.33 | 0 | 0 |
| 2,048 | HaiFischBanane | 1:56.37 | 0 | 0 |
| 2,049 | Adrian-Rapowanie | 1:56.41 | 0 | 0 |
| 2,050 | rosiebranch | 1:56.43 | 0 | 0 |
| 2,051 | neurofox | 1:56.45 | 0 | 0 |
| 2,052 | ReadWriteError | 1:56.49 | 0 | 0 |
| 2,053 | Moth LF> Flame(serious DMs only) | 1:56.56 | 0 | 0 |
| 2,054 | NotNotPancake | 1:56.57 | 0 | 0 |
| 2,055 | 42and7 | 1:56.68 | 0 | 0 |
| 2,056 | BlobCodes | 1:56.70 | 0 | 0 |
| 2,057 | Durag Manny | 1:56.71 | 0 | 0 |
| 2,058 | WTFrogs | 1:56.73 | 0 | 0 |
| 2,059 | ~Astral Skies~ | 1:56.84 | 0 | 0 |
| 2,060 | NotKeith | 1:56.86 | 0 | 0 |
| 2,061 | VictorBoum | 1:57.12 | 0 | 0 |
| 2,062 | StarLawd | 1:57.14 | 0 | 0 |
| 2,063 | Shakez | 1:57.15 | 0 | 0 |
| 2,064 | Vueko | 1:57.19 | 0 | 0 |
| 2,065 | OhHeyItsPaul | 1:57.20 | 0 | 0 |
| 2,066 | MonsterCat | 1:57.22 | 0 | 0 |
| 2,067 | Neutron.lul | 1:57.24 | 0 | 0 |
| 2,068 | Glas | 1:57.25 | 0 | 0 |
| 2,069 | MeowkinPlay | 1:57.36 | 0 | 0 |
| 2,070 | Firefly Legend(hun) | 1:57.42 | 0 | 0 |
| 2,071 | VariousBlazertazer | 1:57.44 | 0 | 0 |
| 2,072 | Pai | 1:57.48 | 0 | 0 |
| 2,073 | Netord | 1:57.54 | 0 | 0 |
| 2,074 | Strider | 1:57.56 | 0 | 0 |
| 2,075 | all3adron | 1:57.62 | 0 | 0 |
| 2,076 | Mimmic | 1:57.64 | 0 | 0 |
| 2,077 | Dmytro | 1:57.67 | 0 | 0 |
| 2,078 | Harue Kuma | 1:57.68 | 0 | 0 |
| 2,079 | Aladin | 1:57.69 | 0 | 0 |
| 2,080 | samasabi | 1:57.78 | 0 | 0 |
| 2,081 | shub | 1:57.81 | 0 | 0 |
| 2,082 | ASHES. | 1:57.85 | 0 | 0 |
| 2,083 | Clossd | 1:57.88 | 0 | 0 |
| 2,084 | Lunarjman89 | 1:57.94 | 0 | 0 |
| 2,085 | Dahhkick | 1:57.95 | 0 | 0 |
| 2,086 | Dominion | 1:58.05 | 0 | 0 |
| 2,087 | eyezzrini ॐ | 1:58.14 | 0 | 0 |
| 2,088 | . | 1:58.20 | 0 | 0 |
| 2,088 | FoxyLoon | 1:58.20 | 0 | 0 |
| 2,090 | Skyexir | 1:58.34 | 0 | 0 |
| 2,091 | TheBoredguyyy | 1:58.35 | 0 | 0 |
| 2,091 | TS_Mind_Swept | 1:58.35 | 0 | 0 |
| 2,093 | cnow | 1:58.39 | 0 | 0 |
| 2,094 | Barron | 1:58.43 | 0 | 0 |
| 2,095 | Park Bom | 1:58.70 | 0 | 0 |
| 2,095 | Auston777 | 1:58.70 | 0 | 0 |
| 2,097 | Juicy | 1:58.71 | 0 | 0 |
| 2,097 | FoxySensei16 | 1:58.71 | 0 | 0 |
| 2,099 | ArtIbex | 1:58.74 | 0 | 0 |
| 2,100 | Stardom | 1:58.83 | 0 | 0 |
| 2,101 | somob | 1:58.87 | 0 | 0 |
| 2,102 | Slobbercat | 1:58.90 | 0 | 0 |
| 2,103 | yangdok | 1:58.93 | 0 | 0 |
| 2,104 | ludovicwehrung | 1:59.00 | 0 | 0 |
| 2,105 | Reid | 1:59.04 | 0 | 0 |
| 2,106 | Helpeg | 1:59.08 | 0 | 0 |
| 2,107 | ⛧CR4CKERS⛧ | 1:59.09 | 0 | 0 |
| 2,108 | AlpacaMan | 1:59.12 | 0 | 0 |
| 2,108 | Useless | 1:59.12 | 0 | 0 |
| 2,110 | LeonRez | 1:59.15 | 0 | 0 |
| 2,111 | prestonamoose | 1:59.17 | 0 | 0 |
| 2,112 | Mage Vivian the Matriarch | 1:59.19 | 0 | 0 |
| 2,113 | Brolom | 1:59.36 | 0 | 0 |
| 2,114 | SharoffKot | 1:59.38 | 0 | 0 |
| 2,115 | nie majki; | 1:59.44 | 0 | 0 |
| 2,116 | bmrc97 | 1:59.48 | 0 | 0 |
| 2,117 | ♠Midknight♠ | 1:59.50 | 0 | 0 |
| 2,118 | Unlight369 | 1:59.54 | 0 | 0 |
| 2,119 | marrowick | 1:59.67 | 0 | 0 |
| 2,120 | Raba | 1:59.68 | 0 | 0 |
| 2,121 | HeadphoneDevil | 1:59.79 | 0 | 0 |
| 2,122 | Xterra | 1:59.90 | 0 | 0 |
| 2,123 | konradsworny | 2:00.09 | 0 | 0 |
| 2,124 | Shifted | 2:00.11 | 0 | 0 |
| 2,125 | Slurek | 2:00.12 | 0 | 0 |
| 2,126 | kuvni | 2:00.18 | 0 | 0 |
| 2,127 | Rorro Pirrorro | 2:00.27 | 0 | 0 |
| 2,128 | Allandrow | 2:00.28 | 0 | 0 |
| 2,129 | Loys Nuva | 2:00.30 | 0 | 0 |
| 2,130 | marsboy | 2:00.32 | 0 | 0 |
| 2,131 | SkylessNight | 2:00.36 | 0 | 0 |
| 2,132 | [REDACTED] | 2:00.53 | 0 | 0 |
| 2,133 | Yeetus Deletus | 2:00.54 | 0 | 0 |
| 2,134 | James Boned | 2:00.56 | 0 | 0 |
| 2,135 | SiffyAvali | 2:00.68 | 0 | 0 |
| 2,136 | gizzard | 2:00.70 | 0 | 0 |
| 2,136 | Снимитие вак | 2:00.70 | 0 | 0 |
| 2,138 | Jaeden7060 | 2:00.74 | 0 | 0 |
| 2,139 | Aggressive Trilobite | 2:00.75 | 0 | 0 |
| 2,140 | Pix | 2:00.79 | 0 | 0 |
| 2,141 | Nameless Monarch | 2:00.88 | 0 | 0 |
| 2,142 | ΡΘR₮ѦŁ ŦΘ ĦΣŁŁ | 2:00.90 | 0 | 0 |
| 2,143 | Rae Static | 2:00.94 | 0 | 0 |
| 2,144 | GryphShot | 2:01.22 | 0 | 0 |
| 2,145 | Engineer Gaming | 2:01.29 | 0 | 0 |
| 2,146 | Cynic | 2:01.30 | 0 | 0 |
| 2,147 | Hars | 2:01.40 | 0 | 0 |
| 2,148 | Lecon | 2:01.41 | 0 | 0 |
| 2,149 | Flare Fire | 2:01.43 | 0 | 0 |
| 2,150 | Jepp | 2:01.44 | 0 | 0 |
| 2,150 | strawberry | 2:01.44 | 0 | 0 |
| 2,152 | BesRezen | 2:01.52 | 0 | 0 |
| 2,153 | mitre 10 | 2:01.61 | 0 | 0 |
| 2,154 | Absolute | 2:01.64 | 0 | 0 |
| 2,155 | Kerrilucio2006 | 2:01.71 | 0 | 0 |
| 2,156 | Angle | 2:01.72 | 0 | 0 |
| 2,157 | Tomati | 2:01.73 | 0 | 0 |
| 2,158 | Farama83 | 2:01.78 | 0 | 0 |
| 2,159 | SirWanksalot | 2:01.80 | 0 | 0 |
| 2,160 | novae99 | 2:01.84 | 0 | 0 |
| 2,161 | Superdav10 | 2:01.96 | 0 | 0 |
| 2,162 | Makusu | 2:01.97 | 0 | 0 |
| 2,163 | Pan Nikt | 2:01.99 | 0 | 0 |
| 2,164 | Citadel | 2:02.03 | 0 | 0 |
| 2,165 | Linovsky | 2:02.05 | 0 | 0 |
| 2,166 | Walter | 2:02.11 | 0 | 0 |
| 2,167 | coss80 | 2:02.16 | 0 | 0 |
| 2,168 | post_red | 2:02.19 | 0 | 0 |
| 2,168 | SlenderBonnie | 2:02.19 | 0 | 0 |
| 2,170 | Spiral Unstable | 2:02.24 | 0 | 0 |
| 2,170 | Salty Tortelloni | 2:02.24 | 0 | 0 |
| 2,170 | Kwmart | 2:02.24 | 0 | 0 |
| 2,173 | ShadeSlayer24 | 2:02.25 | 0 | 0 |
| 2,174 | DrunkenWeebBot | 2:02.27 | 0 | 0 |
| 2,174 | Entermess | 2:02.27 | 0 | 0 |
| 2,174 | Tayko | 2:02.27 | 0 | 0 |
| 2,177 | Saphira Kai | 2:02.31 | 0 | 0 |
| 2,178 | Agent Starlight | 2:02.37 | 0 | 0 |
| 2,179 | Gidan | 2:02.38 | 0 | 0 |
| 2,180 | félix | 2:02.40 | 0 | 0 |
| 2,181 | Bubba | 2:02.41 | 0 | 0 |
| 2,182 | Tex | 2:02.45 | 0 | 0 |
| 2,183 | Robotnik00 | 2:02.55 | 0 | 0 |
| 2,184 | passe_riviere | 2:02.74 | 0 | 0 |
| 2,185 | supa scoopa | 2:02.81 | 0 | 0 |
| 2,186 | Dekkosun™ | 2:02.84 | 0 | 0 |
| 2,187 | science_team.png | 2:02.90 | 0 | 0 |
| 2,188 | BigFatRock | 2:03.06 | 0 | 0 |
| 2,189 | fat scout | 2:03.08 | 0 | 0 |
| 2,190 | Lewo [FR] | 2:03.18 | 0 | 0 |
| 2,191 | JellyBunny | 2:03.22 | 0 | 0 |
| 2,192 | neo_anderson | 2:03.29 | 0 | 0 |
| 2,193 | Apollo | 2:03.30 | 0 | 0 |
| 2,194 | FifteenBread | 2:03.41 | 0 | 0 |
| 2,195 | JoRa_82 | 2:03.43 | 0 | 0 |
| 2,196 | Stracker | 2:03.54 | 0 | 0 |
| 2,197 | PowerLay | 2:03.58 | 0 | 0 |
| 2,198 | Minefreak6633 | 2:03.79 | 0 | 0 |
| 2,199 | Raiden | 2:03.90 | 0 | 0 |
| 2,200 | Spycho | 2:03.94 | 0 | 0 |
| 2,201 | g | 2:04.08 | 0 | 0 |
| 2,202 | パパ フランク | 2:04.11 | 0 | 0 |
| 2,203 | Needwagon | 2:04.22 | 0 | 0 |
| 2,204 | ErzoopaRTR | 2:04.26 | 0 | 0 |
| 2,204 | Zero_Infinity | 2:04.26 | 0 | 0 |
| 2,206 | RetraraDragon | 2:04.28 | 0 | 0 |
| 2,207 | Miss Rizzle | 2:04.29 | 0 | 0 |
| 2,208 | solar | 2:04.31 | 0 | 0 |
| 2,209 | Markolado | 2:04.40 | 0 | 0 |
| 2,210 | eik the cat | 2:04.51 | 0 | 0 |
| 2,210 | LyteSpawn | 2:04.51 | 0 | 0 |
| 2,210 | Caffeine Cat | 2:04.51 | 0 | 0 |
| 2,213 | Günther Fox | 2:04.60 | 0 | 0 |
| 2,214 | ►The repreditor◄ | 2:04.63 | 0 | 0 |
| 2,215 | Magister Ludi | 2:04.64 | 0 | 0 |
| 2,216 | Hirochi | 2:04.65 | 0 | 0 |
| 2,217 | Marshall | 2:04.74 | 0 | 0 |
| 2,218 | 4314 | 2:04.84 | 0 | 0 |
| 2,219 | Failure.lul | 2:04.85 | 0 | 0 |
| 2,220 | HardRoar|Lionhead | 2:04.92 | 0 | 0 |
| 2,221 | Trickiert | 2:04.94 | 0 | 0 |
| 2,222 | ^jnz | 2:04.98 | 0 | 0 |
| 2,222 | Sample Text | 2:04.98 | 0 | 0 |
| 2,224 | pater | 2:04.99 | 0 | 0 |
| 2,225 | sWiggn | 2:05.06 | 0 | 0 |
| 2,226 | WolfQueen | 2:05.17 | 0 | 0 |
| 2,227 | Caroot | 2:05.21 | 0 | 0 |
| 2,228 | tortoise | 2:05.22 | 0 | 0 |
| 2,229 | Guy in Gold | 2:05.30 | 0 | 0 |
| 2,230 | Right you are Ken | 2:05.51 | 0 | 0 |
| 2,231 | momased | 2:05.61 | 0 | 0 |
| 2,232 | Skybob22 | 2:05.74 | 0 | 0 |
| 2,233 | Sibsen | 2:05.92 | 0 | 0 |
| 2,234 | ClassyClownfish | 2:05.96 | 0 | 0 |
| 2,235 | FunChips | 2:06.00 | 0 | 0 |
| 2,236 | -_Nero_- | 2:06.14 | 0 | 0 |
| 2,237 | Dango | 2:06.21 | 0 | 0 |
| 2,238 | Ammo37 | 2:06.24 | 0 | 0 |
| 2,239 | Chicken_Tendy | 2:06.25 | 0 | 0 |
| 2,240 | Kiets | 2:06.27 | 0 | 0 |
| 2,240 | Axien | 2:06.27 | 0 | 0 |
| 2,242 | Oblivious | 2:06.34 | 0 | 0 |
| 2,243 | Kityraz | 2:06.39 | 0 | 0 |
| 2,244 | Intellibastard | 2:06.47 | 0 | 0 |
| 2,245 | Fearture | 2:06.48 | 0 | 0 |
| 2,246 | Seere | 2:06.59 | 0 | 0 |
| 2,247 | PolPotsNPans | 2:06.65 | 0 | 0 |
| 2,248 | Machine Entity | 2:06.83 | 0 | 0 |
| 2,249 | Darnoc703 | 2:06.87 | 0 | 0 |
| 2,250 | vZ.R3DBACK | 2:06.90 | 0 | 0 |
| 2,251 | T1+0 | 2:06.95 | 0 | 0 |
| 2,251 | lIlIlIlIlIlIlIl | 2:06.95 | 0 | 0 |
| 2,253 | ahv | 2:06.97 | 0 | 0 |
| 2,254 | Coen | 2:07.03 | 0 | 0 |
| 2,255 | Goldziu | 2:07.08 | 0 | 0 |
| 2,255 | Persival | 2:07.08 | 0 | 0 |
| 2,257 | kopfundsteinistgleichpflaster | 2:07.13 | 0 | 0 |
| 2,257 | Windrunner | 2:07.13 | 0 | 0 |
| 2,259 | Skrigar | 2:07.14 | 0 | 0 |
| 2,260 | stagbeetlejuice | 2:07.36 | 0 | 0 |
| 2,261 | Shakawah | 2:07.48 | 0 | 0 |
| 2,262 | QB_Fox | 2:07.55 | 0 | 0 |
| 2,263 | catw | 2:07.56 | 0 | 0 |
| 2,264 | Zalister | 2:07.68 | 0 | 0 |
| 2,265 | Magovitch | 2:07.82 | 0 | 0 |
| 2,266 | Sappytron | 2:07.83 | 0 | 0 |
| 2,267 | pantzos4444 | 2:07.98 | 0 | 0 |
| 2,268 | Firka | 2:08.10 | 0 | 0 |
| 2,269 | ★ Angel♥~ ★ | 2:08.12 | 0 | 0 |
| 2,269 | Ethan Oyster | 2:08.12 | 0 | 0 |
| 2,271 | Trobocop | 2:08.15 | 0 | 0 |
| 2,272 | Sam | 2:08.16 | 0 | 0 |
| 2,273 | yodeling.yoshi | 2:08.28 | 0 | 0 |
| 2,274 | Zhaxtbrecht | 2:08.39 | 0 | 0 |
| 2,275 | Lady Yupiel | 2:08.42 | 0 | 0 |
| 2,276 | My balls + hydraulic press | 2:08.43 | 0 | 0 |
| 2,277 | Pig Tattoo | 2:08.56 | 0 | 0 |
| 2,277 | RoyalWizard | 2:08.56 | 0 | 0 |
| 2,279 | Kirn | 2:08.60 | 0 | 0 |
| 2,280 | Chemeias | 2:08.71 | 0 | 0 |
| 2,281 | morgansinsidestory | 2:08.82 | 0 | 0 |
| 2,282 | LunaPwny | 2:08.85 | 0 | 0 |
| 2,283 | Computer User | 2:08.86 | 0 | 0 |
| 2,284 | Gafy | 2:08.90 | 0 | 0 |
| 2,285 | Captain Claw | 2:08.97 | 0 | 0 |
| 2,286 | shendi | 2:09.03 | 0 | 0 |
| 2,287 | Cursed Fire | 2:09.10 | 0 | 0 |
| 2,288 | Reus | 2:09.12 | 0 | 0 |
| 2,288 | JasterPax | 2:09.12 | 0 | 0 |
| 2,290 | Börk | 2:09.14 | 0 | 0 |
| 2,291 | andrew200204 | 2:09.23 | 0 | 0 |
| 2,292 | Dove Linen | 2:09.25 | 0 | 0 |
| 2,293 | Hamster | 2:09.43 | 0 | 0 |
| 2,294 | Grabuge | 2:09.45 | 0 | 0 |
| 2,295 | DARKSTORM | 2:09.50 | 0 | 0 |
| 2,296 | Shadow | 2:09.71 | 0 | 0 |
| 2,297 | sugoiangela | 2:09.72 | 0 | 0 |
| 2,298 | тиф | 2:09.82 | 0 | 0 |
| 2,299 | Delta Prime | 2:09.88 | 0 | 0 |
| 2,300 | Agroman12 | 2:10.00 | 0 | 0 |
| 2,301 | oCL. Kiatight | 2:10.03 | 0 | 0 |
| 2,302 | DriveOffTheCliff | 2:10.06 | 0 | 0 |
| 2,303 | Ḿåy Ťøøţĉhēř | 2:10.09 | 0 | 0 |
| 2,304 | night hunter | 2:10.11 | 0 | 0 |
| 2,305 | Sassy | 2:10.16 | 0 | 0 |
| 2,306 | RinsDoll | 2:10.17 | 0 | 0 |
| 2,307 | Nisesh | 2:10.23 | 0 | 0 |
| 2,308 | Melon | 2:10.30 | 0 | 0 |
| 2,309 | gavin144 | 2:10.33 | 0 | 0 |
| 2,310 | SkyX3 ♘ | 2:10.37 | 0 | 0 |
| 2,311 | Crow | 2:10.55 | 0 | 0 |
| 2,312 | Ication | 2:10.56 | 0 | 0 |
| 2,313 | JigglyBax | 2:10.65 | 0 | 0 |
| 2,314 | Aerox | 2:10.73 | 0 | 0 |
| 2,315 | Ahhrealpeople | 2:10.81 | 0 | 0 |
| 2,316 | ArxeonOP | 2:10.95 | 0 | 0 |
| 2,317 | C4-621 Raven | 2:11.02 | 0 | 0 |
| 2,318 | EXPEDITION 33 GOTY | 2:11.06 | 0 | 0 |
| 2,318 | Aniv | 2:11.06 | 0 | 0 |
| 2,320 | Darmst | 2:11.16 | 0 | 0 |
| 2,320 | killer80 | 2:11.16 | 0 | 0 |
| 2,322 | Scrof | 2:11.19 | 0 | 0 |
| 2,323 | Crawlode | 2:11.34 | 0 | 0 |
| 2,324 | OneCent_HD | 2:11.38 | 0 | 0 |
| 2,325 | boba | 2:11.49 | 0 | 0 |
| 2,326 | Slax_ | 2:11.56 | 0 | 0 |
| 2,327 | !132 | 2:11.57 | 0 | 0 |
| 2,328 | Title Fighter | 2:11.60 | 0 | 0 |
| 2,329 | stewthepoo | 2:11.65 | 0 | 0 |
| 2,330 | Tamer | 2:11.75 | 0 | 0 |
| 2,331 | DefraggedSSD | 2:11.85 | 0 | 0 |
| 2,332 | KillerSamik | 2:11.87 | 0 | 0 |
| 2,333 | hurtwolf777 | 2:11.90 | 0 | 0 |
| 2,334 | GD Taylor | 2:12.03 | 0 | 0 |
| 2,335 | Mutant_Lunestra | 2:12.06 | 0 | 0 |
| 2,336 | Orion.lul | 2:12.08 | 0 | 0 |
| 2,337 | Potassionite | 2:12.10 | 0 | 0 |
| 2,338 | Some immortal blob creature | 2:12.15 | 0 | 0 |
| 2,339 | Kirb | 2:12.19 | 0 | 0 |
| 2,340 | Slate | 2:12.21 | 0 | 0 |
| 2,341 | Laurent | 2:12.24 | 0 | 0 |
| 2,342 | pedroygormelo | 2:12.40 | 0 | 0 |
| 2,343 | Khornefl4ke5 | 2:12.48 | 0 | 0 |
| 2,344 | Thechin | 2:12.57 | 0 | 0 |
| 2,345 | GamerBojac | 2:12.94 | 0 | 0 |
| 2,346 | zorankid | 2:12.97 | 0 | 0 |
| 2,347 | Awarz luy | 2:13.00 | 0 | 0 |
| 2,348 | A1exandro | 2:13.02 | 0 | 0 |
| 2,349 | Mellow Manta | 2:13.05 | 0 | 0 |
| 2,350 | Wolffie | 2:13.10 | 0 | 0 |
| 2,351 | Chated | 2:13.20 | 0 | 0 |
| 2,352 | Da Thimg | 2:13.40 | 0 | 0 |
| 2,353 | hip crusher | 2:13.46 | 0 | 0 |
| 2,354 | Lord_Of_Weasels | 2:13.95 | 0 | 0 |
| 2,355 | Poofoo | 2:14.04 | 0 | 0 |
| 2,356 | williammassey340 | 2:14.12 | 0 | 0 |
| 2,357 | rz zombie | 2:14.18 | 0 | 0 |
| 2,358 | Royaloliver | 2:14.24 | 0 | 0 |
| 2,359 | Canadian | 2:14.48 | 0 | 0 |
| 2,360 | Lixciaa | 2:14.55 | 0 | 0 |
| 2,361 | Abby Cadabby | 2:14.58 | 0 | 0 |
| 2,361 | Pernilongo | 2:14.58 | 0 | 0 |
| 2,363 | BioPaw | 2:14.64 | 0 | 0 |
| 2,363 | Scarlet | 2:14.64 | 0 | 0 |
| 2,365 | Lightshift | 2:14.76 | 0 | 0 |
| 2,366 | This Life Absurd | 2:14.80 | 0 | 0 |
| 2,367 | MuffinSponge | 2:14.81 | 0 | 0 |
| 2,368 | sixthreezy | 2:14.94 | 0 | 0 |
| 2,369 | CatMeme | 2:15.00 | 0 | 0 |
| 2,370 | Hekkthor | 2:15.11 | 0 | 0 |
| 2,371 | Nadoc | 2:15.16 | 0 | 0 |
| 2,372 | GOOSE SATAN! | 2:15.27 | 0 | 0 |
| 2,373 | Thevenomous | 2:15.38 | 0 | 0 |
| 2,374 | fzeroman | 2:15.47 | 0 | 0 |
| 2,375 | EndskendV | 2:15.48 | 0 | 0 |
| 2,376 | racercowboy | 2:15.51 | 0 | 0 |
| 2,377 | Dotza | 2:15.63 | 0 | 0 |
| 2,378 | BlueKaiTheEnd | 2:15.72 | 0 | 0 |
| 2,378 | Joe | 2:15.72 | 0 | 0 |
| 2,380 | Banana Foggy | 2:15.76 | 0 | 0 |
| 2,381 | cheesybytes | 2:15.84 | 0 | 0 |
| 2,382 | dumpBikes | 2:16.08 | 0 | 0 |
| 2,383 | Methler | 2:16.10 | 0 | 0 |
| 2,384 | NoVaC | 2:16.33 | 0 | 0 |
| 2,385 | Zoombie_™ | 2:16.50 | 0 | 0 |
| 2,386 | Mcholypotato | 2:16.53 | 0 | 0 |
| 2,387 | Agent Tangerine | 2:16.72 | 0 | 0 |
| 2,388 | --TuttiFrutti-- | 2:16.74 | 0 | 0 |
| 2,389 | luck | 2:16.94 | 0 | 0 |
| 2,390 | Amadeus | 2:17.07 | 0 | 0 |
| 2,390 | 回向院 | 2:17.07 | 0 | 0 |
| 2,392 | 2ndBillingCycle | 2:17.35 | 0 | 0 |
| 2,393 | ʇdǝɔuob/glimmerene | 2:17.37 | 0 | 0 |
| 2,394 | StarMiku039 | 2:17.39 | 0 | 0 |
| 2,395 | Lè | 2:17.41 | 0 | 0 |
| 2,396 | Fluke | 2:17.46 | 0 | 0 |
| 2,396 | Vanheden | 2:17.46 | 0 | 0 |
| 2,398 | YLin | 2:17.94 | 0 | 0 |
| 2,399 | Eiggy | 2:18.02 | 0 | 0 |
| 2,399 | Etcetera_Naut | 2:18.02 | 0 | 0 |
| 2,401 | 226phil | 2:18.08 | 0 | 0 |
| 2,402 | bensxnn | 2:18.23 | 0 | 0 |
| 2,403 | Лолисичка | 2:18.42 | 0 | 0 |
| 2,404 | DarkShadow | 2:18.54 | 0 | 0 |
| 2,405 | carlhosan | 2:18.58 | 0 | 0 |
| 2,406 | Dataluxe | 2:18.63 | 0 | 0 |
| 2,407 | Mindhack | 2:18.77 | 0 | 0 |
| 2,408 | AnonSchlingel | 2:18.79 | 0 | 0 |
| 2,409 | solojohn123 | 2:18.89 | 0 | 0 |
| 2,410 | ImaFoxx69 | 2:18.95 | 0 | 0 |
| 2,411 | 纸飞机 | 2:18.97 | 0 | 0 |
| 2,412 | Aegos | 2:19.05 | 0 | 0 |
| 2,413 | supertylerx2 | 2:19.51 | 0 | 0 |
| 2,414 | Schizophriend | 2:19.58 | 0 | 0 |
| 2,415 | Cerberus14 | 2:19.97 | 0 | 0 |
| 2,416 | Captain Slothbeard | 2:20.02 | 0 | 0 |
| 2,417 | DomNation | 2:20.10 | 0 | 0 |
| 2,418 | Captain Canuck | 2:20.19 | 0 | 0 |
| 2,419 | Aconite_Knight | 2:20.32 | 0 | 0 |
| 2,420 | A_Nerd | 2:20.35 | 0 | 0 |
| 2,421 | Whysman | 2:20.49 | 0 | 0 |
| 2,422 | AlexMVW10 | 2:20.50 | 0 | 0 |
| 2,423 | chesh-19 | 2:20.92 | 0 | 0 |
| 2,424 | Bamboo | 2:21.04 | 0 | 0 |
| 2,425 | Skrall' | 2:21.27 | 0 | 0 |
| 2,426 | Psychoblade[187] | 2:21.43 | 0 | 0 |
| 2,427 | 風 | 2:21.48 | 0 | 0 |
| 2,428 | DeskTopHero | 2:21.49 | 0 | 0 |
| 2,429 | SGiB2001 | 2:21.70 | 0 | 0 |
| 2,430 | Darkjunk | 2:21.75 | 0 | 0 |
| 2,431 | bill | 2:22.09 | 0 | 0 |
| 2,432 | IvanTheTerrible | 2:22.15 | 0 | 0 |
| 2,433 | solae | 2:22.28 | 0 | 0 |
| 2,434 | Yellow | 2:22.47 | 0 | 0 |
| 2,435 | Bilbobangboom | 2:22.50 | 0 | 0 |
| 2,436 | Hurricane Puncher | 2:22.68 | 0 | 0 |
| 2,437 | Alexkurts | 2:22.70 | 0 | 0 |
| 2,438 | timhufflepuff | 2:22.79 | 0 | 0 |
| 2,439 | VAL | Giogio | 2:22.82 | 0 | 0 |
| 2,440 | RNG | 2:23.15 | 0 | 0 |
| 2,441 | Nimalzinho | 2:23.16 | 0 | 0 |
| 2,442 | Apple | 2:23.26 | 0 | 0 |
| 2,443 | Giant | 2:23.59 | 0 | 0 |
| 2,444 | Chikarai-san ♥ | 2:23.76 | 0 | 0 |
| 2,445 | Dayo | 2:23.84 | 0 | 0 |
| 2,446 | fedex | 2:23.88 | 0 | 0 |
| 2,447 | Frost Bite~ | 2:23.99 | 0 | 0 |
| 2,448 | Felidaptra | 2:24.02 | 0 | 0 |
| 2,449 | Tuvox | 2:24.06 | 0 | 0 |
| 2,450 | WitchOnFire | 2:24.14 | 0 | 0 |
| 2,451 | ElectroDbstp | 2:24.18 | 0 | 0 |
| 2,452 | daveusf | 2:24.22 | 0 | 0 |
| 2,453 | [deleted] | 2:24.25 | 0 | 0 |
| 2,454 | random871 | 2:24.28 | 0 | 0 |
| 2,455 | Balloune77 | 2:24.47 | 0 | 0 |
| 2,456 | Junior | 2:24.69 | 0 | 0 |
| 2,457 | Doku | 2:24.74 | 0 | 0 |
| 2,458 | Solaris | 2:24.93 | 0 | 0 |
| 2,459 | Ilmer | 2:24.95 | 0 | 0 |
| 2,460 | MetaLeviathan | 2:24.96 | 0 | 0 |
| 2,461 | Abyss | 2:25.06 | 0 | 0 |
| 2,462 | The Fraud Freud | 2:25.19 | 0 | 0 |
| 2,463 | TekuGen | 2:25.23 | 0 | 0 |
| 2,464 | Acedia | 2:25.31 | 0 | 0 |
| 2,465 | JuggernautRyan | 2:25.61 | 0 | 0 |
| 2,466 | Jamal786🪐 | 2:25.67 | 0 | 0 |
| 2,467 | Exec | 2:25.96 | 0 | 0 |
| 2,468 | xXxG0dzRAgexXx | 2:26.12 | 0 | 0 |
| 2,469 | Slyppa | 2:26.34 | 0 | 0 |
| 2,470 | KianNotCyan | 2:27.03 | 0 | 0 |
| 2,471 | astralFitz | 2:27.25 | 0 | 0 |
| 2,472 | Firestix | 2:27.31 | 0 | 0 |
| 2,473 | Scio | 2:27.32 | 0 | 0 |
| 2,474 | Guide Missile | 2:27.35 | 0 | 0 |
| 2,475 | Tequila | 2:27.45 | 0 | 0 |
| 2,476 | HappyAlcoholic | 2:27.59 | 0 | 0 |
| 2,477 | Kanser | 2:27.79 | 0 | 0 |
| 2,478 | ADF-11F | 2:27.86 | 0 | 0 |
| 2,479 | Sicvitaerat | 2:27.87 | 0 | 0 |
| 2,480 | ThadeusBK | 2:27.93 | 0 | 0 |
| 2,481 | ExMax | 2:27.99 | 0 | 0 |
| 2,482 | Sateez | 2:28.01 | 0 | 0 |
| 2,482 | Pinguin | 2:28.01 | 0 | 0 |
| 2,484 | ItsRhoss | 2:28.22 | 0 | 0 |
| 2,485 | Mobius | 2:28.23 | 0 | 0 |
| 2,486 | Scorchgid | 2:28.26 | 0 | 0 |
| 2,487 | [General] Sir. Raven | 2:28.28 | 0 | 0 |
| 2,488 | TheArchangel | 2:28.45 | 0 | 0 |
| 2,489 | Chrestomanci09 | 2:28.48 | 0 | 0 |
| 2,490 | Kaanimani | 2:28.56 | 0 | 0 |
| 2,491 | Alex | 2:28.61 | 0 | 0 |
| 2,492 | Loreckine | 2:28.70 | 0 | 0 |
| 2,493 | Western Imperialist | 2:29.05 | 0 | 0 |
| 2,494 | ZenF | 2:29.10 | 0 | 0 |
| 2,495 | Your Fav Baka | 2:29.12 | 0 | 0 |
| 2,496 | Kilo | 2:29.32 | 0 | 0 |
| 2,497 | Ganii7 | 2:29.33 | 0 | 0 |
| 2,498 | SADVCobra | 2:29.42 | 0 | 0 |
| 2,499 | kill everyone and leave | 2:29.59 | 0 | 0 |
| 2,500 | Woods | 2:29.61 | 0 | 0 |
| 2,501 | Lizz #abgeraged | 2:29.83 | 0 | 0 |
| 2,502 | Dinner | 2:29.95 | 0 | 0 |
| 2,503 | 01011011010 | 2:30.01 | 0 | 0 |
| 2,504 | briisu | 2:30.24 | 0 | 0 |
| 2,504 | robertheking | 2:30.24 | 0 | 0 |
| 2,506 | [Shin0bu] | 2:30.47 | 0 | 0 |
| 2,507 | AniseedWolf | 2:31.14 | 0 | 0 |
| 2,508 | Seemly | 2:31.43 | 0 | 0 |
| 2,509 | RedΛngel | 2:31.45 | 0 | 0 |
| 2,510 | Go Fish | 2:31.47 | 0 | 0 |
| 2,511 | Admiral Pond Scum | 2:31.49 | 0 | 0 |
| 2,512 | Dirt McGirt | 2:31.55 | 0 | 0 |
| 2,513 | Beef | 2:31.57 | 0 | 0 |
| 2,514 | starhorder | 2:32.04 | 0 | 0 |
| 2,515 | ReverseUno | 2:32.32 | 0 | 0 |
| 2,516 | Blitz | 2:32.54 | 0 | 0 |
| 2,517 | Leonidus | 2:32.57 | 0 | 0 |
| 2,518 | BiGdIcMiKe | 2:33.24 | 0 | 0 |
| 2,519 | Catsko | 2:33.40 | 0 | 0 |
| 2,520 | Swash | 2:33.56 | 0 | 0 |
| 2,521 | Setherouth | 2:34.19 | 0 | 0 |
| 2,522 | NakDak | 2:34.37 | 0 | 0 |
| 2,523 | Loomshade | 2:34.44 | 0 | 0 |
| 2,524 | PIRATE | 2:34.56 | 0 | 0 |
| 2,525 | litup | 2:34.65 | 0 | 0 |
| 2,526 | Grebwalker | 2:34.73 | 0 | 0 |
| 2,527 | Dwyer | 2:34.85 | 0 | 0 |
| 2,528 | iMafon | 2:35.13 | 0 | 0 |
| 2,529 | VinniXS | 2:35.22 | 0 | 0 |
| 2,530 | Mineswee | 2:35.23 | 0 | 0 |
| 2,531 | AyeJ | 2:35.24 | 0 | 0 |
| 2,532 | Bulka | 2:35.52 | 0 | 0 |
| 2,533 | Calfus | 2:35.57 | 0 | 0 |
| 2,534 | TitanSpider70 | 2:35.64 | 0 | 0 |
| 2,535 | Silvertail | 2:35.89 | 0 | 0 |
| 2,535 | IsmaZheCat | 2:35.89 | 0 | 0 |
| 2,537 | LukeFlySwatter | 2:35.91 | 0 | 0 |
| 2,538 | brickmason61696 | 2:35.93 | 0 | 0 |
| 2,539 | ☢ Jejou ☢ | 2:36.13 | 0 | 0 |
| 2,540 | bASSyshka | 2:36.22 | 0 | 0 |
| 2,541 | Spero | 2:36.31 | 0 | 0 |
| 2,541 | Spartan1337AH | 2:36.31 | 0 | 0 |
| 2,543 | Tori | 2:36.94 | 0 | 0 |
| 2,544 | le0n | 2:36.97 | 0 | 0 |
| 2,545 | King of Bees | 2:37.04 | 0 | 0 |
| 2,546 | GralPeron | 2:37.42 | 0 | 0 |
| 2,547 | Luk_333 | 2:37.57 | 0 | 0 |
| 2,548 | Mike Miller | 2:37.59 | 0 | 0 |
| 2,549 | Valaryon | 2:37.71 | 0 | 0 |
| 2,550 | schaboop | 2:37.85 | 0 | 0 |
| 2,551 | blamecoopa | 2:38.20 | 0 | 0 |
| 2,552 | Opaque | 2:38.36 | 0 | 0 |
| 2,553 | Koncrom | 2:38.66 | 0 | 0 |
| 2,554 | Broly | 2:38.98 | 0 | 0 |
| 2,555 | Duderino | 2:39.17 | 0 | 0 |
| 2,556 | Mythreial | 2:39.19 | 0 | 0 |
| 2,557 | Mauzirollo123 | 2:40.24 | 0 | 0 |
| 2,558 | MrJace | 2:40.56 | 0 | 0 |
| 2,559 | N_Thinker | 2:40.80 | 0 | 0 |
| 2,560 | LockedForce | 2:40.82 | 0 | 0 |
| 2,561 | Zevrame | 2:40.84 | 0 | 0 |
| 2,562 | Sputnik | 2:40.98 | 0 | 0 |
| 2,563 | Valen | 2:41.06 | 0 | 0 |
| 2,564 | Quarterware | 2:41.52 | 0 | 0 |
| 2,565 | iLan | 2:41.67 | 0 | 0 |
| 2,566 | Beebz | 2:41.77 | 0 | 0 |
| 2,566 | boned avery | 2:41.77 | 0 | 0 |
| 2,568 | Byaku78952 | 2:42.56 | 0 | 0 |
| 2,569 | copilul calebului | 2:43.35 | 0 | 0 |
| 2,570 | Punt | 2:43.72 | 0 | 0 |
| 2,571 | Razkaroth | 2:43.76 | 0 | 0 |
| 2,572 | PuddyKilla | 2:43.83 | 0 | 0 |
| 2,573 | ilyneyo | 2:43.91 | 0 | 0 |
| 2,574 | Bratalix | 2:44.25 | 0 | 0 |
| 2,575 | Everlasting Dargoon | 2:44.28 | 0 | 0 |
| 2,576 | Ell | 2:44.33 | 0 | 0 |
| 2,577 | Texugops☯ | 2:44.48 | 0 | 0 |
| 2,578 | Eyezie | 2:44.61 | 0 | 0 |
| 2,579 | flower | 2:44.77 | 0 | 0 |
| 2,579 | Surgoe | 2:44.77 | 0 | 0 |
| 2,581 | sevenofnone | 2:44.90 | 0 | 0 |
| 2,582 | Can'tKickNitrox2 | 2:45.10 | 0 | 0 |
| 2,583 | mome | 2:45.53 | 0 | 0 |
| 2,584 | Too Many Urkels On Your Team | 2:45.60 | 0 | 0 |
| 2,585 | JuicyyJayy | 2:45.98 | 0 | 0 |
| 2,586 | Nailuj 13 | 2:46.52 | 0 | 0 |
| 2,587 | Asasin_Lazer | 2:46.82 | 0 | 0 |
| 2,588 | LexiNadia | 2:46.90 | 0 | 0 |
| 2,589 | WYR3 | 2:47.26 | 0 | 0 |
| 2,590 | MetalBruh | 2:47.37 | 0 | 0 |
| 2,591 | SWITCHKOFF | 2:47.61 | 0 | 0 |
| 2,592 | CoreOG | 2:47.64 | 0 | 0 |
| 2,593 | Erleyah | 2:48.11 | 0 | 0 |
| 2,594 | jliebig | 2:48.62 | 0 | 0 |
| 2,595 | raminator | 2:49.36 | 0 | 0 |
| 2,596 | Sabo | 2:49.50 | 0 | 0 |
| 2,597 | Ptakx [ES-FR] | 2:49.71 | 0 | 0 |
| 2,598 | Claire Astora | 2:50.62 | 0 | 0 |
| 2,599 | Val | 2:51.33 | 0 | 0 |
| 2,600 | NumberZERO | 2:51.85 | 0 | 0 |
| 2,601 | Адырда | 2:52.21 | 0 | 0 |
| 2,602 | CloterChohan | 2:52.40 | 0 | 0 |
| 2,603 | Stanislavovich²³ | 2:52.54 | 0 | 0 |
| 2,604 | ben.medlock11 | 2:52.71 | 0 | 0 |
| 2,605 | SaltySpitoon | 2:53.66 | 0 | 0 |
| 2,606 | Girlizia | 2:54.02 | 0 | 0 |
| 2,607 | Smuggler_ | 2:54.05 | 0 | 0 |
| 2,608 | Steuben | 2:54.09 | 0 | 0 |
| 2,609 | Azhidaahaka | 2:55.29 | 0 | 0 |
| 2,610 | ArtyomA14 | 2:55.86 | 0 | 0 |
| 2,611 | βεη | 2:55.99 | 0 | 0 |
| 2,612 | Moonka616 | 2:56.72 | 0 | 0 |
| 2,613 | MrBrain | 2:56.98 | 0 | 0 |
| 2,614 | the_monotonist | 2:57.00 | 0 | 0 |
| 2,615 | duckyhayes4jr | 2:57.88 | 0 | 0 |
| 2,616 | Snorlax | 2:58.14 | 0 | 0 |
| 2,617 | Patrick | 2:58.23 | 0 | 0 |
| 2,618 | ForlornStag | 2:58.35 | 0 | 0 |
| 2,619 | mrmarcelluswallace | 2:58.39 | 0 | 0 |
| 2,620 | Johnny The Winter Shaymin | 2:59.46 | 0 | 0 |
| 2,621 | DezFlavoredCola | 2:59.59 | 0 | 0 |
| 2,622 | WSBat | 2:59.71 | 0 | 0 |
| 2,623 | dany_ev3 | 2:59.96 | 0 | 0 |
| 2,624 | blueyindustries | 3:00.31 | 0 | 0 |
| 2,625 | Zyde | 3:00.33 | 0 | 0 |
| 2,626 | G4T0 | 3:01.44 | 0 | 0 |
| 2,627 | Chris | 3:01.55 | 0 | 0 |
| 2,628 | SmittenPuppet | 3:01.69 | 0 | 0 |
| 2,629 | гений делдока | 3:02.32 | 0 | 0 |
| 2,630 | CasualCheetah | 3:02.46 | 0 | 0 |
| 2,631 | WamJamLam | 3:02.60 | 0 | 0 |
| 2,632 | Magic Man | 3:03.26 | 0 | 0 |
| 2,633 | frogman51 | 3:03.36 | 0 | 0 |
| 2,634 | Protoarc | 3:03.60 | 0 | 0 |
| 2,635 | ShadowRaven | 3:03.71 | 0 | 0 |
| 2,636 | 999 | 3:04.34 | 0 | 0 |
| 2,637 | Autumnal | 3:04.75 | 0 | 0 |
| 2,638 | Achromatic_Colors | 3:05.42 | 0 | 0 |
| 2,639 | Metastreumonic | 3:05.99 | 0 | 0 |
| 2,640 | Takijo | 3:06.85 | 0 | 0 |
| 2,641 | Tom Kramboyee | 3:07.14 | 0 | 0 |
| 2,642 | Loot Hunter | 3:07.43 | 0 | 0 |
| 2,643 | elder matthew | 3:07.65 | 0 | 0 |
| 2,644 | Skiddlywiffers | 3:07.78 | 0 | 0 |
| 2,645 | Sigmar Male | 3:08.01 | 0 | 0 |
| 2,646 | jobi | 3:09.29 | 0 | 0 |
| 2,647 | Jxnathan12_UHC | 3:09.41 | 0 | 0 |
| 2,648 | Rainbow Dash UwU | 3:09.46 | 0 | 0 |
| 2,649 | Black Bold Bee | 3:10.45 | 0 | 0 |
| 2,650 | Vernanox | 3:10.82 | 0 | 0 |
| 2,651 | Angry Bookkeeper | 3:10.88 | 0 | 0 |
| 2,652 | Snowstrike | 3:10.98 | 0 | 0 |
| 2,653 | Khohloma | 3:11.22 | 0 | 0 |
| 2,654 | pepe yuno nakano | 3:11.54 | 0 | 0 |
| 2,655 | Thunderfeet | 3:12.04 | 0 | 0 |
| 2,656 | $$$_sweetie_$$$ | 3:12.20 | 0 | 0 |
| 2,657 | doordragon | 3:13.41 | 0 | 0 |
| 2,658 | bimmer | 3:13.85 | 0 | 0 |
| 2,659 | tierparkzone | 3:13.95 | 0 | 0 |
| 2,660 | kanko | 3:15.12 | 0 | 0 |
| 2,661 | wheelov | 3:15.50 | 0 | 0 |
| 2,662 | ТВОЙ НИК - ГОВНО | 3:16.18 | 0 | 0 |
| 2,663 | rmz | 3:16.25 | 0 | 0 |
| 2,664 | ␀ | 3:17.17 | 0 | 0 |
| 2,665 | it's britney b | 3:19.59 | 0 | 0 |
| 2,666 | adubs23 | 3:22.01 | 0 | 0 |
| 2,667 | shokaku | 3:22.25 | 0 | 0 |
| 2,668 | 2-eeillustrationTTV | 3:22.70 | 0 | 0 |
| 2,669 | S3kshun8 | 3:23.19 | 0 | 0 |
| 2,670 | Br0TherOfW@r [ PT ] | 3:23.91 | 0 | 0 |
| 2,671 | moris | 3:23.93 | 0 | 0 |
| 2,672 | M | 3:24.63 | 0 | 0 |
| 2,673 | Stealthxs | 3:24.96 | 0 | 0 |
| 2,674 | Verax | 3:25.09 | 0 | 0 |
| 2,675 | ShakToth | 3:25.87 | 0 | 0 |
| 2,676 | Rose_Heart13 | 3:26.20 | 0 | 0 |
| 2,677 | Judge Dredd Begley Jr. | 3:26.83 | 0 | 0 |
| 2,678 | Fenrir | 3:26.95 | 0 | 0 |
| 2,679 | akamikeb | 3:27.49 | 0 | 0 |
| 2,680 | Elyx | 3:27.95 | 0 | 0 |
| 2,681 | ExacT | 3:27.96 | 0 | 0 |
| 2,682 | YOLOSWAGLORD420GDC | 3:28.41 | 0 | 0 |
| 2,683 | Tom From Plants Vs. Zombies | 3:28.69 | 0 | 0 |
| 2,684 | Пиздализик <3 | 3:29.69 | 0 | 0 |
| 2,685 | POLARIS_UK | 3:30.57 | 0 | 0 |
| 2,686 | Merged Angels | 3:30.60 | 0 | 0 |
| 2,687 | Geary | 3:31.85 | 0 | 0 |
| 2,688 | Velika | 3:31.96 | 0 | 0 |
| 2,689 | Daros | 3:32.08 | 0 | 0 |
| 2,690 | ZeGURU | 3:34.56 | 0 | 0 |
| 2,691 | 50 | 3:35.44 | 0 | 0 |
| 2,692 | Brownie in Motion | 3:36.23 | 0 | 0 |
| 2,693 | Viper | 3:36.98 | 0 | 0 |
| 2,694 | Syntht | 3:37.44 | 0 | 0 |
| 2,695 | Darkor | 3:37.90 | 0 | 0 |
| 2,696 | ⭕Rinzler⭕ | 3:37.92 | 0 | 0 |
| 2,697 | NULL; | 3:38.54 | 0 | 0 |
| 2,698 | Freakface | 3:38.62 | 0 | 0 |
| 2,699 | SWAT | 3:38.96 | 0 | 0 |
| 2,700 | PopTeenSensationBritneyBreitney | 3:40.31 | 0 | 0 |
| 2,701 | Alevan Zinos | 3:42.55 | 0 | 0 |
| 2,702 | Vexcint | 3:43.16 | 0 | 0 |
| 2,703 | Angrymooose | 3:43.48 | 0 | 0 |
| 2,704 | MamaClockie | 3:43.69 | 0 | 0 |
| 2,705 | I Am Special | 3:44.35 | 0 | 0 |
| 2,706 | Penguin | 3:44.74 | 0 | 0 |
| 2,707 | Jam3sthorwolf | 3:47.44 | 0 | 0 |
| 2,708 | SenpaiSandy | 3:47.83 | 0 | 0 |
| 2,709 | miro. | 3:47.99 | 0 | 0 |
| 2,710 | Mantol | 3:48.82 | 0 | 0 |
| 2,711 | Fernando | 3:48.86 | 0 | 0 |
| 2,712 | unk | 3:49.01 | 0 | 0 |
| 2,713 | 2700637144 | 3:53.02 | 0 | 0 |
| 2,714 | ctmmagov10 | 3:53.26 | 0 | 0 |
| 2,715 | I_FIGHT_FOR_THE_USERS | 3:53.71 | 0 | 0 |
| 2,716 | Shio | 3:54.21 | 0 | 0 |
| 2,717 | Lilith Torres | 3:54.27 | 0 | 0 |
| 2,718 | Yeak8 | 3:54.60 | 0 | 0 |
| 2,719 | Кентишка | 3:58.84 | 0 | 0 |
| 2,720 | Aleante | 4:03.30 | 0 | 0 |
| 2,721 | corn | 4:04.87 | 0 | 0 |
| 2,722 | Phaserlight | 4:05.01 | 0 | 0 |
| 2,723 | andy-bobandy | 4:05.87 | 0 | 0 |
| 2,724 | exodus | 4:06.87 | 0 | 0 |
| 2,725 | TheSeaOfAsh | 4:08.83 | 0 | 0 |
| 2,726 | Kitsu | 4:09.49 | 0 | 0 |
| 2,727 | ICDS | 4:10.71 | 0 | 0 |
| 2,728 | R12 | 4:12.61 | 0 | 0 |
| 2,729 | NoCappuccino | 4:12.88 | 0 | 0 |
| 2,730 | Lena_thePilot | 4:14.13 | 0 | 0 |
| 2,731 | Deacon | 4:15.69 | 0 | 0 |
| 2,732 | CaAl2Si2O8 NaAlSi3O8 | 4:15.87 | 0 | 0 |
| 2,733 | BraveSirRobin | 4:17.40 | 0 | 0 |
| 2,734 | DeadlyWaffle | 4:22.01 | 0 | 0 |
| 2,735 | Space Trash | 4:34.01 | 0 | 0 |
| 2,736 | Yuuki Asuna | 4:36.22 | 0 | 0 |
| 2,737 | romeo | 4:41.08 | 0 | 0 |
| 2,738 | Dazindude | 4:41.09 | 0 | 0 |
| 2,739 | Zack Flarestar | 4:42.97 | 0 | 0 |
| 2,740 | Dubious | 4:47.19 | 0 | 0 |
| 2,741 | mxT3 (mxtomek) | 4:48.29 | 0 | 0 |
| 2,742 | ThatVia | 4:53.23 | 0 | 0 |
| 2,743 | 1Hp♰ | 4:55.34 | 0 | 0 |
| 2,744 | Shippel | 4:59.58 | 0 | 0 |
| 2,745 | Gexgekko | 5:00.95 | 0 | 0 |
| 2,746 | Beevo | 5:01.42 | 0 | 0 |
| 2,747 | InfraRed | 5:08.90 | 0 | 0 |
| 2,748 | Rognar | 5:14.22 | 0 | 0 |
| 2,749 | saulmarv | 5:33.30 | 0 | 0 |
| 2,750 | XD swish | 5:38.01 | 0 | 0 |
| 2,751 | BEZDARZ | 5:40.04 | 0 | 0 |
| 2,752 | bozo123 | 5:40.92 | 0 | 0 |
| 2,753 | joakim. | 5:42.40 | 0 | 0 |
| 2,754 | Pdog | 5:59.53 | 0 | 0 |
| 2,755 | Brandedwolf | 6:12.94 | 0 | 0 |
| 2,756 | doorshlaq | 6:14.90 | 0 | 0 |
| 2,757 | Roxas | 6:21.18 | 0 | 0 |
| 2,758 | escamuche | 6:22.09 | 0 | 0 |
| 2,759 | Rotkaeppchen | 6:37.85 | 0 | 0 |
| 2,760 | Chief | 6:39.00 | 0 | 0 |
| 2,761 | Black | 7:12.46 | 0 | 0 |
| 2,762 | Zemixy | 9:16.51 | 0 | 0 |
| 2,763 | davislb2 | 9:34.06 | 0 | 0 |
HoldGrip